Observation data for Clyde on 01/22/2019      Previous  Date  Next       Current Mesonet Observations  Soil Data  Daily Summary Page  Observations in Plain Language
KCL2 220600Z 17019G24KT 10/07 A2976 RMK A01 T01040070  RH  079%=      5-min Rain = 0
KCL2 220601Z 17017KT 10/07 A2976 RMK A01 T01040071  RH  080%=      5-min Rain = 0
KCL2 220602Z 16020G26KT 10/07 A2976 RMK A01 T01040071  RH  080%=      5-min Rain = 0
KCL2 220603Z 17018G25KT 10/07 A2976 RMK A01 T01040071  RH  080%=      5-min Rain = 0
KCL2 220604Z 17017G22KT 10/07 A2976 RMK A01 T01040071  RH  080%=      5-min Rain = 0
KCL2 220605Z 16018KT 10/07 A2976 RMK A01 T01040071  RH  080%=      5-min Rain = 0
KCL2 220606Z 17017KT 10/07 A2976 RMK A01 T01040071  RH  080%=      5-min Rain = 0
KCL2 220607Z 17015G21KT 10/07 A2977 RMK A01 T01040071  RH  080%=      5-min Rain = 0
KCL2 220608Z 17017G22KT 10/07 A2976 RMK A01 T01030070  RH  080%=      5-min Rain = 0
KCL2 220609Z 17018G25KT 10/07 A2976 RMK A01 T01030070  RH  080%=      5-min Rain = 0
KCL2 220610Z 17017KT 10/07 A2976 RMK A01 T01040071  RH  080%=      5-min Rain = 0
KCL2 220611Z 17016KT 10/07 A2977 RMK A01 T01040071  RH  080%=      5-min Rain = 0
KCL2 220612Z 17019G25KT 10/07 A2977 RMK A01 T01040071  RH  080%=      5-min Rain = 0
KCL2 220613Z 17018KT 10/07 A2976 RMK A01 T01030071  RH  080%=      5-min Rain = 0
KCL2 220614Z 17015G21KT 10/07 A2976 RMK A01 T01030071  RH  080%=      5-min Rain = 0
KCL2 220615Z 17017KT 10/07 A2977 RMK A01 T01030071  RH  081%=      5-min Rain = 0
KCL2 220616Z 17016G22KT 10/07 A2976 RMK A01 T01030071  RH  081%=      5-min Rain = 0
KCL2 220617Z 17016G21KT 10/07 A2977 RMK A01 T01030071  RH  081%=      5-min Rain = 0
KCL2 220618Z 17016G21KT 10/07 A2977 RMK A01 T01030071  RH  081%=      5-min Rain = 0
KCL2 220619Z 18017KT 10/07 A2976 RMK A01 T01030071  RH  081%=      5-min Rain = 0
KCL2 220620Z 17018G24KT 10/07 A2977 RMK A01 T01030071  RH  081%=      5-min Rain = 0
KCL2 220621Z 17018KT 10/07 A2977 RMK A01 T01030071  RH  081%=      5-min Rain = 0
KCL2 220622Z 17018G23KT 10/07 A2977 RMK A01 T01030072  RH  081%=      5-min Rain = 0
KCL2 220623Z 17018KT 10/07 A2977 RMK A01 T01030072  RH  081%=      5-min Rain = 0
KCL2 220624Z 18017G22KT 10/07 A2977 RMK A01 T01030072  RH  081%=      5-min Rain = 0
KCL2 220625Z 17013KT 10/07 A2977 RMK A01 T01030072  RH  081%=      5-min Rain = 0
KCL2 220626Z 17016G23KT 10/07 A2976 RMK A01 T01020072  RH  081%=      5-min Rain = 0
KCL2 220627Z 17020KT 10/07 A2976 RMK A01 T01020072  RH  082%=      5-min Rain = 0
KCL2 220628Z 18018KT 10/07 A2976 RMK A01 T01020073  RH  082%=      5-min Rain = 0
KCL2 220629Z 17017KT 10/07 A2976 RMK A01 T01030073  RH  082%=      5-min Rain = 0
KCL2 220630Z 18019KT 10/07 A2976 RMK A01 T01030073  RH  082%=      5-min Rain = 0
KCL2 220631Z 18020G25KT 10/07 A2976 RMK A01 T01030073  RH  082%=      5-min Rain = 0
KCL2 220632Z 17020G25KT 10/07 A2976 RMK A01 T01030073  RH  082%=      5-min Rain = 0
KCL2 220633Z 17017KT 10/07 A2976 RMK A01 T01030073  RH  082%=      5-min Rain = 0
KCL2 220634Z 17017G23KT 10/07 A2976 RMK A01 T01030074  RH  082%=      5-min Rain = 0
KCL2 220635Z 17018G25KT 10/07 A2976 RMK A01 T01030074  RH  082%=      5-min Rain = 0
KCL2 220636Z 17019G24KT 10/07 A2976 RMK A01 T01030074  RH  082%=      5-min Rain = 0
KCL2 220637Z 17020G25KT 10/07 A2976 RMK A01 T01030074  RH  083%=      5-min Rain = 0
KCL2 220638Z 18021KT 10/07 A2976 RMK A01 T01030074  RH  083%=      5-min Rain = 0
KCL2 220639Z 18019KT 10/07 A2976 RMK A01 T01030074  RH  083%=      5-min Rain = 0
KCL2 220640Z 17018KT 10/08 A2976 RMK A01 T01030075  RH  083%=      5-min Rain = 0
KCL2 220641Z 18018KT 10/08 A2976 RMK A01 T01030075  RH  083%=      5-min Rain = 0
KCL2 220642Z 17016G22KT 10/08 A2976 RMK A01 T01030075  RH  083%=      5-min Rain = 0
KCL2 220643Z 18018G25KT 10/08 A2976 RMK A01 T01030075  RH  083%=      5-min Rain = 0
KCL2 220644Z 17017G23KT 10/08 A2976 RMK A01 T01030076  RH  083%=      5-min Rain = 0
KCL2 220645Z 17015G20KT 10/08 A2976 RMK A01 T01030076  RH  083%=      5-min Rain = 0
KCL2 220646Z 18019KT 10/08 A2976 RMK A01 T01030076  RH  083%=      5-min Rain = 0
KCL2 220647Z 18020KT 10/08 A2976 RMK A01 T01030076  RH  084%=      5-min Rain = 0
KCL2 220648Z 17018G26KT 10/08 A2976 RMK A01 T01030076  RH  084%=      5-min Rain = 0
KCL2 220649Z 17020G26KT 10/08 A2975 RMK A01 T01030076  RH  084%=      5-min Rain = 0
KCL2 220650Z 17017G22KT 10/08 A2976 RMK A01 T01040077  RH  084%=      5-min Rain = 0
KCL2 220651Z 17016KT 10/08 A2976 RMK A01 T01030077  RH  084%=      5-min Rain = 0
KCL2 220652Z 17016KT 10/08 A2976 RMK A01 T01030077  RH  084%=      5-min Rain = 0
KCL2 220653Z 18018KT 10/08 A2975 RMK A01 T01030078  RH  084%=      5-min Rain = 0
KCL2 220654Z 17019G26KT 10/08 A2975 RMK A01 T01030078  RH  084%=      5-min Rain = 0
KCL2 220655Z 18020KT 10/08 A2975 RMK A01 T01030078  RH  084%=      5-min Rain = 0
KCL2 220656Z 18020KT 10/08 A2975 RMK A01 T01040078  RH  084%=      5-min Rain = 0
KCL2 220657Z 17016G21KT 10/08 A2975 RMK A01 T01040078  RH  084%=      5-min Rain = 0
KCL2 220658Z 17015KT 10/08 A2975 RMK A01 T01040079  RH  084%=      5-min Rain = 0
KCL2 220659Z 17020G26KT 10/08 A2975 RMK A01 T01040079  RH  085%=      5-min Rain = 0
KCL2 220700Z 17021G29KT 10/08 A2975 RMK A01 T01040080  RH  085%=      5-min Rain = 0
KCL2 220701Z 18017G25KT 11/08 A2975 RMK A01 T01050080  RH  085%=      5-min Rain = 0
KCL2 220702Z 17018KT 11/08 A2975 RMK A01 T01050080  RH  085%=      5-min Rain = 0
KCL2 220703Z 17018KT 11/08 A2975 RMK A01 T01050081  RH  085%=      5-min Rain = 0
KCL2 220704Z 17019G24KT 11/08 A2974 RMK A01 T01050081  RH  085%=      5-min Rain = 0
KCL2 220705Z 17017KT 11/08 A2975 RMK A01 T01060081  RH  085%=      5-min Rain = 0
KCL2 220706Z 17015G21KT 11/08 A2975 RMK A01 T01060081  RH  085%=      5-min Rain = 0
KCL2 220707Z 18016G22KT 11/08 A2975 RMK A01 T01060081  RH  085%=      5-min Rain = 0
KCL2 220708Z 18018KT 11/08 A2975 RMK A01 T01060082  RH  085%=      5-min Rain = 0
KCL2 220709Z 18015KT 11/08 A2975 RMK A01 T01060082  RH  085%=      5-min Rain = 0
KCL2 220710Z 18018KT 11/08 A2975 RMK A01 T01060082  RH  085%=      5-min Rain = 0
KCL2 220711Z 17020G26KT 11/08 A2975 RMK A01 T01060082  RH  085%=      5-min Rain = 0
KCL2 220712Z 17019G25KT 11/08 A2975 RMK A01 T01060083  RH  085%=      5-min Rain = 0
KCL2 220713Z 18019G24KT 11/08 A2975 RMK A01 T01070083  RH  085%=      5-min Rain = 0
KCL2 220714Z 18019KT 11/08 A2975 RMK A01 T01070084  RH  085%=      5-min Rain = 0
KCL2 220715Z 18018KT 11/08 A2975 RMK A01 T01070083  RH  085%=      5-min Rain = 0
KCL2 220716Z 18016G21KT 11/08 A2975 RMK A01 T01080083  RH  085%=      5-min Rain = 0
KCL2 220717Z 18017KT 11/08 A2975 RMK A01 T01070083  RH  085%=      5-min Rain = 0
KCL2 220718Z 18018G23KT 11/08 A2975 RMK A01 T01070084  RH  085%=      5-min Rain = 0
KCL2 220719Z 18017G22KT 11/08 A2974 RMK A01 T01070084  RH  086%=      5-min Rain = 0
KCL2 220720Z 18017KT 11/08 A2974 RMK A01 T01080084  RH  085%=      5-min Rain = 0
KCL2 220721Z 18018G23KT 11/08 A2974 RMK A01 T01080084  RH  085%=      5-min Rain = 0
KCL2 220722Z 17018G24KT 11/08 A2974 RMK A01 T01080084  RH  085%=      5-min Rain = 0
KCL2 220723Z 18021G28KT 11/08 A2974 RMK A01 T01080084  RH  085%=      5-min Rain = 0
KCL2 220724Z 18019G26KT 11/09 A2974 RMK A01 T01080085  RH  085%=      5-min Rain = 0
KCL2 220725Z 18019G25KT 11/09 A2974 RMK A01 T01090085  RH  085%=      5-min Rain = 0
KCL2 220726Z 18017G22KT 11/09 A2974 RMK A01 T01080085  RH  085%=      5-min Rain = 0
KCL2 220727Z 18019KT 11/09 A2974 RMK A01 T01090085  RH  086%=      5-min Rain = 0
KCL2 220728Z 18017KT 11/09 A2974 RMK A01 T01080085  RH  086%=      5-min Rain = 0
KCL2 220729Z 18019KT 11/09 A2974 RMK A01 T01080085  RH  086%=      5-min Rain = 0
KCL2 220730Z 17019G25KT 11/09 A2974 RMK A01 T01080086  RH  086%=      5-min Rain = 0
KCL2 220731Z 18019KT 11/09 A2974 RMK A01 T01080085  RH  086%=      5-min Rain = 0
KCL2 220732Z 18019KT 11/09 A2974 RMK A01 T01080086  RH  086%=      5-min Rain = 0
KCL2 220733Z 17017KT 11/09 A2974 RMK A01 T01080085  RH  086%=      5-min Rain = 0
KCL2 220734Z 18018G24KT 11/09 A2974 RMK A01 T01080086  RH  086%=      5-min Rain = 0
KCL2 220735Z 18019G25KT 11/09 A2974 RMK A01 T01080086  RH  086%=      5-min Rain = 0
KCL2 220736Z 18016KT 11/09 A2974 RMK A01 T01080086  RH  086%=      5-min Rain = 0
KCL2 220737Z 17017KT 11/09 A2974 RMK A01 T01080086  RH  086%=      5-min Rain = 0
KCL2 220738Z 18018G27KT 11/09 A2974 RMK A01 T01080087  RH  086%=      5-min Rain = 0
KCL2 220739Z 18020KT 11/09 A2974 RMK A01 T01080087  RH  087%=      5-min Rain = 0
KCL2 220740Z 17018G24KT 11/09 A2974 RMK A01 T01090087  RH  087%=      5-min Rain = 0
KCL2 220741Z 18020G27KT 11/09 A2974 RMK A01 T01090087  RH  086%=      5-min Rain = 0
KCL2 220742Z 18019G25KT 11/09 A2974 RMK A01 T01090087  RH  086%=      5-min Rain = 0
KCL2 220743Z 18025KT 11/09 A2974 RMK A01 T01090087  RH  086%=      5-min Rain = 0
KCL2 220744Z 18022G28KT 11/09 A2973 RMK A01 T01090088  RH  086%=      5-min Rain = 0
KCL2 220745Z 17017KT 11/09 A2974 RMK A01 T01100088  RH  086%=      5-min Rain = 0
KCL2 220746Z 18020G26KT 11/09 A2974 RMK A01 T01100088  RH  086%=      5-min Rain = 0
KCL2 220747Z 17020KT 11/09 A2973 RMK A01 T01090088  RH  087%=      5-min Rain = 0
KCL2 220748Z 18022G29KT 11/09 A2973 RMK A01 T01100088  RH  087%=      5-min Rain = 0
KCL2 220749Z 18021G27KT 11/09 A2973 RMK A01 T01100089  RH  087%=      5-min Rain = 0
KCL2 220750Z 17023KT 11/09 A2973 RMK A01 T01110089  RH  087%=      5-min Rain = 0
KCL2 220751Z 18023KT 11/09 A2973 RMK A01 T01110089  RH  086%=      5-min Rain = 0
KCL2 220752Z 17021G30KT 11/09 A2973 RMK A01 T01110089  RH  086%=      5-min Rain = 0
KCL2 220753Z 18022KT 11/09 A2973 RMK A01 T01110089  RH  086%=      5-min Rain = 0
KCL2 220754Z 18020G26KT 11/09 A2973 RMK A01 T01120090  RH  086%=      5-min Rain = 0
KCL2 220755Z 18018G23KT 11/09 A2973 RMK A01 T01110090  RH  086%=      5-min Rain = 0
KCL2 220756Z 18024G31KT 11/09 A2973 RMK A01 T01120090  RH  087%=      5-min Rain = 0
KCL2 220757Z 17022G29KT 11/09 A2973 RMK A01 T01120090  RH  087%=      5-min Rain = 0
KCL2 220758Z 17020KT 11/09 A2973 RMK A01 T01120091  RH  086%=      5-min Rain = 0
KCL2 220759Z 17019G26KT 11/09 A2973 RMK A01 T01120090  RH  086%=      5-min Rain = 0
KCL2 220800Z 18022G27KT 11/09 A2973 RMK A01 T01120090  RH  087%=      5-min Rain = 0
KCL2 220801Z 18020G25KT 11/09 A2973 RMK A01 T01120091  RH  087%=      5-min Rain = 0
KCL2 220802Z 17018KT 11/09 A2973 RMK A01 T01130091  RH  086%=      5-min Rain = 0
KCL2 220803Z 18019G24KT 11/09 A2973 RMK A01 T01120091  RH  086%=      5-min Rain = 0
KCL2 220804Z 18020G26KT 11/09 A2973 RMK A01 T01130091  RH  087%=      5-min Rain = 0
KCL2 220805Z 18019G24KT 11/09 A2973 RMK A01 T01130091  RH  087%=      5-min Rain = 0
KCL2 220806Z 18020KT 11/09 A2973 RMK A01 T01130091  RH  087%=      5-min Rain = 0
KCL2 220807Z 17020KT 11/09 A2973 RMK A01 T01130091  RH  087%=      5-min Rain = 0
KCL2 220808Z 17019G25KT 11/09 A2973 RMK A01 T01130092  RH  087%=      5-min Rain = 0
KCL2 220809Z 18020G25KT 11/09 A2973 RMK A01 T01130092  RH  087%=      5-min Rain = 0
KCL2 220810Z 18020G25KT 11/09 A2973 RMK A01 T01140092  RH  087%=      5-min Rain = 0
KCL2 220811Z 18020KT 11/09 A2973 RMK A01 T01140092  RH  086%=      5-min Rain = 0
KCL2 220812Z 18019KT 11/09 A2973 RMK A01 T01140092  RH  086%=      5-min Rain = 0
KCL2 220813Z 18020G27KT 11/09 A2973 RMK A01 T01140092  RH  086%=      5-min Rain = 0
KCL2 220814Z 18020KT 11/09 A2973 RMK A01 T01140093  RH  086%=      5-min Rain = 0
KCL2 220815Z 17023G28KT 12/09 A2973 RMK A01 T01150093  RH  086%=      5-min Rain = 0
KCL2 220816Z 18020G26KT 12/09 A2972 RMK A01 T01150093  RH  086%=      5-min Rain = 0
KCL2 220817Z 18023KT 12/09 A2973 RMK A01 T01160093  RH  086%=      5-min Rain = 0
KCL2 220818Z 18019KT 12/09 A2972 RMK A01 T01160094  RH  086%=      5-min Rain = 0
KCL2 220819Z 18022G28KT 12/09 A2972 RMK A01 T01160094  RH  086%=      5-min Rain = 0
KCL2 220820Z 17016KT 12/09 A2973 RMK A01 T01160094  RH  086%=      5-min Rain = 0
KCL2 220821Z 18017G22KT 12/09 A2973 RMK A01 T01160094  RH  086%=      5-min Rain = 0
KCL2 220822Z 18017KT 12/09 A2973 RMK A01 T01160094  RH  086%=      5-min Rain = 0
KCL2 220823Z 17019G26KT 12/09 A2973 RMK A01 T01160094  RH  086%=      5-min Rain = 0
KCL2 220824Z 18021KT 12/09 A2972 RMK A01 T01160094  RH  086%=      5-min Rain = 0
KCL2 220825Z 17022KT 12/09 A2972 RMK A01 T01160094  RH  086%=      5-min Rain = 0
KCL2 220826Z 18022G31KT 12/10 A2972 RMK A01 T01170095  RH  086%=      5-min Rain = 0
KCL2 220827Z 18018KT 12/10 A2973 RMK A01 T01180095  RH  086%=      5-min Rain = 0
KCL2 220828Z 18022G27KT 12/09 A2973 RMK A01 T01170094  RH  086%=      5-min Rain = 0
KCL2 220829Z 18022KT 12/10 A2972 RMK A01 T01180095  RH  086%=      5-min Rain = 0
KCL2 220830Z 18019G24KT 12/10 A2973 RMK A01 T01180095  RH  086%=      5-min Rain = 0
KCL2 220831Z 17020G26KT 12/10 A2972 RMK A01 T01190095  RH  085%=      5-min Rain = 0
KCL2 220832Z 18024KT 12/10 A2972 RMK A01 T01190095  RH  086%=      5-min Rain = 0
KCL2 220833Z 18021KT 12/10 A2972 RMK A01 T01190095  RH  085%=      5-min Rain = 0
KCL2 220834Z 17023KT 12/10 A2972 RMK A01 T01190095  RH  085%=      5-min Rain = 0
KCL2 220835Z 18021KT 12/10 A2972 RMK A01 T01190095  RH  085%=      5-min Rain = 0
KCL2 220836Z 18020KT 12/10 A2972 RMK A01 T01190095  RH  085%=      5-min Rain = 0
KCL2 220837Z 18021KT 12/10 A2972 RMK A01 T01190095  RH  085%=      5-min Rain = 0
KCL2 220838Z 18019G27KT 12/10 A2972 RMK A01 T01190095  RH  085%=      5-min Rain = 0
KCL2 220839Z 18025G30KT 12/10 A2972 RMK A01 T01190096  RH  085%=      5-min Rain = 0
KCL2 220840Z 18028KT 12/10 A2972 RMK A01 T01200096  RH  085%=      5-min Rain = 0
KCL2 220841Z 18022G29KT 12/10 A2972 RMK A01 T01200095  RH  085%=      5-min Rain = 0
KCL2 220842Z 18023G28KT 12/10 A2972 RMK A01 T01200095  RH  085%=      5-min Rain = 0
KCL2 220843Z 18023G28KT 12/10 A2972 RMK A01 T01200095  RH  085%=      5-min Rain = 0
KCL2 220844Z 18023G30KT 12/10 A2972 RMK A01 T01200096  RH  085%=      5-min Rain = 0
KCL2 220845Z 18024G29KT 12/10 A2972 RMK A01 T01210095  RH  085%=      5-min Rain = 0
KCL2 220846Z 18021KT 12/10 A2972 RMK A01 T01210095  RH  084%=      5-min Rain = 0
KCL2 220847Z 18023KT 12/10 A2972 RMK A01 T01210095  RH  084%=      5-min Rain = 0
KCL2 220848Z 18024G30KT 12/10 A2972 RMK A01 T01210096  RH  084%=      5-min Rain = 0
KCL2 220849Z 18025KT 12/10 A2972 RMK A01 T01210095  RH  084%=      5-min Rain = 0
KCL2 220850Z 18022KT 12/10 A2972 RMK A01 T01210095  RH  084%=      5-min Rain = 0
KCL2 220851Z 18025G30KT 12/10 A2972 RMK A01 T01210095  RH  084%=      5-min Rain = 0
KCL2 220852Z 19023KT 12/10 A2972 RMK A01 T01210095  RH  084%=      5-min Rain = 0
KCL2 220853Z 19019G24KT 12/10 A2972 RMK A01 T01210096  RH  084%=      5-min Rain = 0
KCL2 220854Z 18022G27KT 12/10 A2972 RMK A01 T01210096  RH  085%=      5-min Rain = 0
KCL2 220855Z 18022G27KT 12/10 A2972 RMK A01 T01210096  RH  085%=      5-min Rain = 0
KCL2 220856Z 18020G27KT 12/10 A2972 RMK A01 T01210096  RH  085%=      5-min Rain = 0
KCL2 220857Z 18023G29KT 12/10 A2972 RMK A01 T01210096  RH  085%=      5-min Rain = 0
KCL2 220858Z 18022G27KT 12/10 A2972 RMK A01 T01210096  RH  085%=      5-min Rain = 0
KCL2 220859Z 18020KT 12/10 A2972 RMK A01 T01210095  RH  084%=      5-min Rain = 0
KCL2 220900Z 18020G26KT 12/10 A2972 RMK A01 T01210095  RH  084%=      5-min Rain = 0
KCL2 220901Z 19021KT 12/10 A2972 RMK A01 T01210096  RH  084%=      5-min Rain = 0
KCL2 220902Z 18019G26KT 12/10 A2972 RMK A01 T01210096  RH  085%=      5-min Rain = 0
KCL2 220903Z 18024G30KT 12/10 A2971 RMK A01 T01200095  RH  085%=      5-min Rain = 0
KCL2 220904Z 18023G32KT 12/10 A2971 RMK A01 T01200095  RH  085%=      5-min Rain = 0
KCL2 220905Z 18024KT 12/10 A2971 RMK A01 T01210095  RH  084%=      5-min Rain = 0
KCL2 220906Z 18023G28KT 12/10 A2972 RMK A01 T01210095  RH  084%=      5-min Rain = 0
KCL2 220907Z 18023KT 12/10 A2971 RMK A01 T01210095  RH  084%=      5-min Rain = 0
KCL2 220908Z 18024G30KT 12/10 A2971 RMK A01 T01210096  RH  084%=      5-min Rain = 0
KCL2 220909Z 18021G29KT 12/10 A2971 RMK A01 T01210095  RH  084%=      5-min Rain = 0
KCL2 220910Z 18020G27KT 12/10 A2971 RMK A01 T01210095  RH  084%=      5-min Rain = 0
KCL2 220911Z 18020G26KT 12/10 A2971 RMK A01 T01210095  RH  084%=      5-min Rain = 0
KCL2 220912Z 18026KT 12/10 A2971 RMK A01 T01210095  RH  084%=      5-min Rain = 0
KCL2 220913Z 18021G26KT 12/10 A2971 RMK A01 T01210095  RH  084%=      5-min Rain = 0
KCL2 220914Z 18020G26KT 12/10 A2971 RMK A01 T01210095  RH  084%=      5-min Rain = 0
KCL2 220915Z 18016KT 12/10 A2971 RMK A01 T01200095  RH  084%=      5-min Rain = 0
KCL2 220916Z 18020G28KT 12/10 A2971 RMK A01 T01200095  RH  085%=      5-min Rain = 0
KCL2 220917Z 18023G30KT 12/10 A2971 RMK A01 T01200095  RH  085%=      5-min Rain = 0
KCL2 220918Z 18021G28KT 12/10 A2971 RMK A01 T01200095  RH  085%=      5-min Rain = 0
KCL2 220919Z 18020G26KT 12/10 A2971 RMK A01 T01200095  RH  085%=      5-min Rain = 0
KCL2 220920Z 18018G25KT 12/10 A2971 RMK A01 T01200095  RH  085%=      5-min Rain = 0
KCL2 220921Z 18023KT 12/10 A2971 RMK A01 T01190095  RH  085%=      5-min Rain = 0
KCL2 220922Z 18021G28KT 12/10 A2971 RMK A01 T01200095  RH  085%=      5-min Rain = 0
KCL2 220923Z 18024KT 12/10 A2971 RMK A01 T01200095  RH  084%=      5-min Rain = 0
KCL2 220924Z 18025KT 12/09 A2971 RMK A01 T01200094  RH  084%=      5-min Rain = 0
KCL2 220925Z 18023G29KT 12/09 A2971 RMK A01 T01200094  RH  084%=      5-min Rain = 0
KCL2 220926Z 18023G28KT 12/09 A2971 RMK A01 T01200094  RH  084%=      5-min Rain = 0
KCL2 220927Z 18020G25KT 12/10 A2971 RMK A01 T01200095  RH  084%=      5-min Rain = 0
KCL2 220928Z 18023G30KT 12/09 A2971 RMK A01 T01200094  RH  084%=      5-min Rain = 0
KCL2 220929Z 18023KT 12/10 A2971 RMK A01 T01200095  RH  084%=      5-min Rain = 0
KCL2 220930Z 18025G30KT 12/10 A2971 RMK A01 T01200095  RH  084%=      5-min Rain = 0
KCL2 220931Z 18024KT 12/10 A2971 RMK A01 T01200095  RH  084%=      5-min Rain = 0
KCL2 220932Z 18022G28KT 12/09 A297 RMK A01 T01200094  RH  084%=      5-min Rain = 0
KCL2 220933Z 18022G27KT 12/09 A297 RMK A01 T01200094  RH  084%=      5-min Rain = 0
KCL2 220934Z 17024G29KT 12/09 A297 RMK A01 T01200094  RH  084%=      5-min Rain = 0
KCL2 220935Z 18022KT 12/09 A297 RMK A01 T01200094  RH  084%=      5-min Rain = 0
KCL2 220936Z 18022KT 12/09 A297 RMK A01 T01200094  RH  084%=      5-min Rain = 0
KCL2 220937Z 18019KT 12/09 A297 RMK A01 T01200094  RH  084%=      5-min Rain = 0
KCL2 220938Z 18019G25KT 12/09 A2971 RMK A01 T01190094  RH  085%=      5-min Rain = 0
KCL2 220939Z 18021KT 12/09 A2971 RMK A01 T01190094  RH  085%=      5-min Rain = 0
KCL2 220940Z 18023KT 12/09 A297 RMK A01 T01190094  RH  085%=      5-min Rain = 0
KCL2 220941Z 18021KT 12/09 A297 RMK A01 T01180094  RH  085%=      5-min Rain = 0
KCL2 220942Z 18018KT 12/09 A297 RMK A01 T01190094  RH  085%=      5-min Rain = 0
KCL2 220943Z 18017KT 12/09 A297 RMK A01 T01180094  RH  085%=      5-min Rain = 0
KCL2 220944Z 18018G23KT 12/09 A2971 RMK A01 T01180093  RH  085%=      5-min Rain = 0
KCL2 220945Z 18020KT 12/09 A2971 RMK A01 T01180094  RH  085%=      5-min Rain = 0
KCL2 220946Z 18021G26KT 12/09 A297 RMK A01 T01170094  RH  085%=      5-min Rain = 0
KCL2 220947Z 18019G27KT 12/09 A297 RMK A01 T01170093  RH  085%=      5-min Rain = 0
KCL2 220948Z 18022G28KT 12/09 A297 RMK A01 T01170093  RH  085%=      5-min Rain = 0
KCL2 220949Z 17022G28KT 12/09 A297 RMK A01 T01170093  RH  085%=      5-min Rain = 0
KCL2 220950Z 18023KT 12/09 A297 RMK A01 T01180093  RH  085%=      5-min Rain = 0
KCL2 220951Z 18021G27KT 12/09 A297 RMK A01 T01180093  RH  085%=      5-min Rain = 0
KCL2 220952Z 18023KT 12/09 A297 RMK A01 T01180093  RH  085%=      5-min Rain = 0
KCL2 220953Z 17020KT 12/09 A297 RMK A01 T01180094  RH  085%=      5-min Rain = 0
KCL2 220954Z 17020G26KT 12/09 A297 RMK A01 T01170093  RH  085%=      5-min Rain = 0
KCL2 220955Z 17018KT 12/09 A2969 RMK A01 T01170093  RH  085%=      5-min Rain = 0
KCL2 220956Z 17024G30KT 12/09 A2969 RMK A01 T01170093  RH  085%=      5-min Rain = 0
KCL2 220957Z 17020KT 12/09 A2969 RMK A01 T01170093  RH  085%=      5-min Rain = 0
KCL2 220958Z 18022G27KT 12/09 A2969 RMK A01 T01170093  RH  085%=      5-min Rain = 0
KCL2 220959Z 18018G26KT 12/09 A2969 RMK A01 T01170093  RH  085%=      5-min Rain = 0
KCL2 221000Z 18020KT 12/09 A2969 RMK A01 T01170093  RH  085%=      5-min Rain = 0
KCL2 221001Z 17024G30KT 12/09 A2969 RMK A01 T01170093  RH  085%=      5-min Rain = 0
KCL2 221002Z 17022KT 12/09 A2969 RMK A01 T01170093  RH  085%=      5-min Rain = 0
KCL2 221003Z 17020G25KT 12/09 A297 RMK A01 T01170093  RH  085%=      5-min Rain = 0
KCL2 221004Z 18020KT 12/09 A297 RMK A01 T01170093  RH  085%=      5-min Rain = 0
KCL2 221005Z 17023KT 12/09 A2969 RMK A01 T01170093  RH  085%=      5-min Rain = 0
KCL2 221006Z 18019KT 12/09 A297 RMK A01 T01170093  RH  085%=      5-min Rain = 0
KCL2 221007Z 18018G23KT 12/09 A297 RMK A01 T01170093  RH  085%=      5-min Rain = 0
KCL2 221008Z 18019KT 12/09 A297 RMK A01 T01170093  RH  085%=      5-min Rain = 0
KCL2 221009Z 18018KT 12/09 A2969 RMK A01 T01170093  RH  085%=      5-min Rain = 0
KCL2 221010Z 18019G24KT 12/09 A2969 RMK A01 T01160093  RH  086%=      5-min Rain = 0
KCL2 221011Z 18023KT 12/09 A2969 RMK A01 T01160093  RH  086%=      5-min Rain = 0
KCL2 221012Z 18022KT 12/09 A2969 RMK A01 T01160093  RH  086%=      5-min Rain = 0
KCL2 221013Z 18021G27KT 12/09 A2969 RMK A01 T01170093  RH  085%=      5-min Rain = 0
KCL2 221014Z 18021KT 12/09 A2969 RMK A01 T01170093  RH  085%=      5-min Rain = 0
KCL2 221015Z 18021G27KT 12/09 A2969 RMK A01 T01170093  RH  085%=      5-min Rain = 0
KCL2 221016Z 18019G24KT 12/09 A2969 RMK A01 T01170093  RH  085%=      5-min Rain = 0
KCL2 221017Z 18021G26KT 12/09 A2969 RMK A01 T01170093  RH  085%=      5-min Rain = 0
KCL2 221018Z 18021KT 12/09 A2969 RMK A01 T01170093  RH  085%=      5-min Rain = 0
KCL2 221019Z 18024KT 12/09 A2969 RMK A01 T01160093  RH  085%=      5-min Rain = 0
KCL2 221020Z 18021G27KT 12/09 A2969 RMK A01 T01170093  RH  085%=      5-min Rain = 0
KCL2 221021Z 18021G27KT 12/09 A2969 RMK A01 T01170093  RH  085%=      5-min Rain = 0
KCL2 221022Z 18021KT 12/09 A2968 RMK A01 T01170093  RH  085%=      5-min Rain = 0
KCL2 221023Z 18020G26KT 12/09 A2968 RMK A01 T01170093  RH  085%=      5-min Rain = 0
KCL2 221024Z 18024G29KT 12/09 A2968 RMK A01 T01170093  RH  085%=      5-min Rain = 0
KCL2 221025Z 18022G27KT 12/09 A2968 RMK A01 T01170093  RH  085%=      5-min Rain = 0
KCL2 221026Z 18022KT 12/09 A2969 RMK A01 T01170093  RH  085%=      5-min Rain = 0
KCL2 221027Z 18021G26KT 12/09 A2969 RMK A01 T01170092  RH  085%=      5-min Rain = 0
KCL2 221028Z 18017KT 12/09 A2968 RMK A01 T01170093  RH  085%=      5-min Rain = 0
KCL2 221029Z 18022G28KT 12/09 A2968 RMK A01 T01160092  RH  085%=      5-min Rain = 0
KCL2 221030Z 17022KT 12/09 A2969 RMK A01 T01160092  RH  086%=      5-min Rain = 0
KCL2 221031Z 18019G24KT 12/09 A2969 RMK A01 T01160093  RH  085%=      5-min Rain = 0
KCL2 221032Z 18022KT 12/09 A2969 RMK A01 T01160092  RH  085%=      5-min Rain = 0
KCL2 221033Z 17020KT 12/09 A2968 RMK A01 T01160092  RH  085%=      5-min Rain = 0
KCL2 221034Z 18020KT 12/09 A2968 RMK A01 T01160092  RH  085%=      5-min Rain = 0
KCL2 221035Z 17023G30KT 12/09 A2968 RMK A01 T01160092  RH  085%=      5-min Rain = 0
KCL2 221036Z 18022G28KT 12/09 A2968 RMK A01 T01160092  RH  085%=      5-min Rain = 0
KCL2 221037Z 18022G29KT 12/09 A2968 RMK A01 T01160092  RH  085%=      5-min Rain = 0
KCL2 221038Z 18021G26KT 12/09 A2968 RMK A01 T01160092  RH  085%=      5-min Rain = 0
KCL2 221039Z 18020G26KT 12/09 A2968 RMK A01 T01160092  RH  085%=      5-min Rain = 0
KCL2 221040Z 18019G25KT 12/09 A2968 RMK A01 T01160092  RH  085%=      5-min Rain = 0
KCL2 221041Z 18022KT 12/09 A2968 RMK A01 T01160092  RH  085%=      5-min Rain = 0
KCL2 221042Z 18021KT 12/09 A2967 RMK A01 T01160092  RH  085%=      5-min Rain = 0
KCL2 221043Z 18025KT 12/09 A2967 RMK A01 T01160092  RH  085%=      5-min Rain = 0
KCL2 221044Z 18023G31KT 12/09 A2968 RMK A01 T01160092  RH  085%=      5-min Rain = 0
KCL2 221045Z 18018G24KT 12/09 A2968 RMK A01 T01170093  RH  085%=      5-min Rain = 0
KCL2 221046Z 18019G24KT 12/09 A2968 RMK A01 T01160092  RH  085%=      5-min Rain = 0
KCL2 221047Z 18020G26KT 12/09 A2968 RMK A01 T01160092  RH  085%=      5-min Rain = 0
KCL2 221048Z 18017G22KT 12/09 A2968 RMK A01 T01160092  RH  086%=      5-min Rain = 0
KCL2 221049Z 18021KT 12/09 A2968 RMK A01 T01160092  RH  086%=      5-min Rain = 0
KCL2 221050Z 18020G26KT 12/09 A2968 RMK A01 T01160092  RH  086%=      5-min Rain = 0
KCL2 221051Z 18022KT 12/09 A2968 RMK A01 T01160092  RH  085%=      5-min Rain = 0
KCL2 221052Z 18019KT 12/09 A2968 RMK A01 T01160092  RH  085%=      5-min Rain = 0
KCL2 221053Z 18019G24KT 12/09 A2968 RMK A01 T01160092  RH  085%=      5-min Rain = 0
KCL2 221054Z 18020G28KT 12/09 A2968 RMK A01 T01160092  RH  085%=      5-min Rain = 0
KCL2 221055Z 18021KT 12/09 A2968 RMK A01 T01160092  RH  085%=      5-min Rain = 0
KCL2 221056Z 18023G28KT 12/09 A2968 RMK A01 T01160092  RH  085%=      5-min Rain = 0
KCL2 221057Z 18018G25KT 12/09 A2968 RMK A01 T01160092  RH  085%=      5-min Rain = 0
KCL2 221058Z 18020G25KT 12/09 A2968 RMK A01 T01160092  RH  085%=      5-min Rain = 0
KCL2 221059Z 18022G27KT 12/09 A2968 RMK A01 T01160092  RH  085%=      5-min Rain = 0
KCL2 221100Z 18024KT 12/09 A2968 RMK A01 T01160092  RH  085%=      5-min Rain = 0
KCL2 221101Z 18022G27KT 12/09 A2968 RMK A01 T01160092  RH  085%=      5-min Rain = 0
KCL2 221102Z 18023KT 12/09 A2967 RMK A01 T01160092  RH  085%=      5-min Rain = 0
KCL2 221103Z 18020KT 12/09 A2968 RMK A01 T01160092  RH  085%=      5-min Rain = 0
KCL2 221104Z 18020G26KT 12/09 A2968 RMK A01 T01160092  RH  085%=      5-min Rain = 0
KCL2 221105Z 18021KT 12/09 A2968 RMK A01 T01160092  RH  085%=      5-min Rain = 0
KCL2 221106Z 18022KT 12/09 A2967 RMK A01 T01160092  RH  085%=      5-min Rain = 0
KCL2 221107Z 18021G26KT 12/09 A2967 RMK A01 T01160092  RH  085%=      5-min Rain = 0
KCL2 221108Z 18023KT 12/09 A2967 RMK A01 T01160092  RH  085%=      5-min Rain = 0
KCL2 221109Z 18022G29KT 12/09 A2967 RMK A01 T01160092  RH  085%=      5-min Rain = 0
KCL2 221110Z 18023G31KT 12/09 A2967 RMK A01 T01160092  RH  085%=      5-min Rain = 0
KCL2 221111Z 18026KT 12/09 A2967 RMK A01 T01170093  RH  085%=      5-min Rain = 0
KCL2 221112Z 18020G30KT 12/09 A2967 RMK A01 T01170093  RH  085%=      5-min Rain = 0
KCL2 221113Z 18019G28KT 12/09 A2967 RMK A01 T01170092  RH  085%=      5-min Rain = 0
KCL2 221114Z 17021G29KT 12/09 A2967 RMK A01 T01170093  RH  085%=      5-min Rain = 0
KCL2 221115Z 18021KT 12/09 A2967 RMK A01 T01170093  RH  085%=      5-min Rain = 0
KCL2 221116Z 18020G26KT 12/09 A2967 RMK A01 T01170092  RH  085%=      5-min Rain = 0
KCL2 221117Z 18022G29KT 12/09 A2967 RMK A01 T01170092  RH  085%=      5-min Rain = 0
KCL2 221118Z 19023KT 12/09 A2968 RMK A01 T01170092  RH  085%=      5-min Rain = 0
KCL2 221119Z 19026G32KT 12/09 A2968 RMK A01 T01170093  RH  085%=      5-min Rain = 0
KCL2 221120Z 18021G26KT 12/09 A2968 RMK A01 T01170092  RH  085%=      5-min Rain = 0
KCL2 221121Z 18019G26KT 12/09 A2968 RMK A01 T01170093  RH  085%=      5-min Rain = 0
KCL2 221122Z 18018G26KT 12/09 A2968 RMK A01 T01170092  RH  085%=      5-min Rain = 0
KCL2 221123Z 18019KT 12/09 A2968 RMK A01 T01170093  RH  085%=      5-min Rain = 0
KCL2 221124Z 18018G24KT 12/09 A2968 RMK A01 T01170093  RH  085%=      5-min Rain = 0
KCL2 221125Z 18021G26KT 12/09 A2968 RMK A01 T01160092  RH  085%=      5-min Rain = 0
KCL2 221126Z 18020G32KT 12/09 A2968 RMK A01 T01160093  RH  085%=      5-min Rain = 0
KCL2 221127Z 19023G28KT 12/09 A2967 RMK A01 T01160093  RH  085%=      5-min Rain = 0
KCL2 221128Z 18023KT 12/09 A2968 RMK A01 T01160093  RH  085%=      5-min Rain = 0
KCL2 221129Z 18022G28KT 12/09 A2968 RMK A01 T01160092  RH  085%=      5-min Rain = 0
KCL2 221130Z 18021G27KT 12/09 A2967 RMK A01 T01170093  RH  085%=      5-min Rain = 0
KCL2 221131Z 18021G26KT 12/09 A2967 RMK A01 T01170093  RH  085%=      5-min Rain = 0
KCL2 221132Z 18019KT 12/09 A2967 RMK A01 T01170092  RH  085%=      5-min Rain = 0
KCL2 221133Z 18023G29KT 12/09 A2967 RMK A01 T01170093  RH  085%=      5-min Rain = 0
KCL2 221134Z 18021G26KT 12/09 A2967 RMK A01 T01170093  RH  085%=      5-min Rain = 0
KCL2 221135Z 18022KT 12/09 A2967 RMK A01 T01170092  RH  085%=      5-min Rain = 0
KCL2 221136Z 18020KT 12/09 A2967 RMK A01 T01170093  RH  085%=      5-min Rain = 0
KCL2 221137Z 18021KT 12/09 A2967 RMK A01 T01170093  RH  085%=      5-min Rain = 0
KCL2 221138Z 18018KT 12/09 A2967 RMK A01 T01170093  RH  085%=      5-min Rain = 0
KCL2 221139Z 18021G28KT 12/09 A2967 RMK A01 T01170093  RH  085%=      5-min Rain = 0
KCL2 221140Z 18021G28KT 12/09 A2967 RMK A01 T01170093  RH  085%=      5-min Rain = 0
KCL2 221141Z 18021G28KT 12/09 A2967 RMK A01 T01170093  RH  085%=      5-min Rain = 0
KCL2 221142Z 18020G25KT 12/09 A2967 RMK A01 T01170093  RH  085%=      5-min Rain = 0
KCL2 221143Z 18022G28KT 12/09 A2967 RMK A01 T01180093  RH  085%=      5-min Rain = 0
KCL2 221144Z 18021KT 12/09 A2967 RMK A01 T01180093  RH  085%=      5-min Rain = 0
KCL2 221145Z 18023G30KT 12/09 A2967 RMK A01 T01180093  RH  085%=      5-min Rain = 0
KCL2 221146Z 18024G29KT 12/09 A2967 RMK A01 T01180093  RH  085%=      5-min Rain = 0
KCL2 221147Z 19020KT 12/09 A2967 RMK A01 T01180093  RH  085%=      5-min Rain = 0
KCL2 221148Z 18019G24KT 12/09 A2967 RMK A01 T01180093  RH  085%=      5-min Rain = 0
KCL2 221149Z 19020G25KT 12/09 A2967 RMK A01 T01180093  RH  085%=      5-min Rain = 0
KCL2 221150Z 18021G27KT 12/09 A2968 RMK A01 T01180093  RH  085%=      5-min Rain = 0
KCL2 221151Z 18020G29KT 12/09 A2967 RMK A01 T01170093  RH  085%=      5-min Rain = 0
KCL2 221152Z 18022G27KT 12/09 A2968 RMK A01 T01170093  RH  085%=      5-min Rain = 0
KCL2 221153Z 18023G28KT 12/09 A2967 RMK A01 T01180093  RH  085%=      5-min Rain = 0
KCL2 221154Z 18021G26KT 12/09 A2968 RMK A01 T01180093  RH  085%=      5-min Rain = 0
KCL2 221155Z 18021G27KT 12/09 A2968 RMK A01 T01180093  RH  085%=      5-min Rain = 0
KCL2 221156Z 18019G25KT 12/09 A2967 RMK A01 T01180093  RH  085%=      5-min Rain = 0
KCL2 221157Z 18019G24KT 12/09 A2968 RMK A01 T01180093  RH  085%=      5-min Rain = 0
KCL2 221158Z 18020G25KT 12/09 A2968 RMK A01 T01180093  RH  085%=      5-min Rain = 0
KCL2 221159Z 18021KT 12/09 A2968 RMK A01 T01180094  RH  085%=      5-min Rain = 0
KCL2 221200Z 18022KT 12/09 A2968 RMK A01 T01180093  RH  085%=      5-min Rain = 0
KCL2 221201Z 18023G29KT 12/09 A2967 RMK A01 T01180093  RH  085%=      5-min Rain = 0
KCL2 221202Z 18021G26KT 12/09 A2968 RMK A01 T01180093  RH  085%=      5-min Rain = 0
KCL2 221203Z 18020KT 12/09 A2968 RMK A01 T01180093  RH  085%=      5-min Rain = 0
KCL2 221204Z 18019KT 12/09 A2968 RMK A01 T01180093  RH  085%=      5-min Rain = 0
KCL2 221205Z 18020KT 12/09 A2968 RMK A01 T01180093  RH  085%=      5-min Rain = 0
KCL2 221206Z 18023G29KT 12/09 A2968 RMK A01 T01180093  RH  085%=      5-min Rain = 0
KCL2 221207Z 18022G27KT 12/09 A2968 RMK A01 T01180093  RH  085%=      5-min Rain = 0
KCL2 221208Z 18019KT 12/09 A2968 RMK A01 T01180093  RH  085%=      5-min Rain = 0
KCL2 221209Z 18022G27KT 12/09 A2968 RMK A01 T01180093  RH  085%=      5-min Rain = 0
KCL2 221210Z 18021KT 12/09 A2968 RMK A01 T01180093  RH  085%=      5-min Rain = 0
KCL2 221211Z 18019KT 12/09 A2968 RMK A01 T01180093  RH  085%=      5-min Rain = 0
KCL2 221212Z 18020G27KT 12/09 A2968 RMK A01 T01180093  RH  085%=      5-min Rain = 0
KCL2 221213Z 18018G26KT 12/09 A2968 RMK A01 T01170093  RH  085%=      5-min Rain = 0
KCL2 221214Z 18024KT 12/09 A2968 RMK A01 T01180093  RH  085%=      5-min Rain = 0
KCL2 221215Z 18019G24KT 12/09 A2968 RMK A01 T01180093  RH  085%=      5-min Rain = 0
KCL2 221216Z 18022KT 12/09 A2968 RMK A01 T01180093  RH  085%=      5-min Rain = 0
KCL2 221217Z 18019KT 12/09 A2968 RMK A01 T01180093  RH  085%=      5-min Rain = 0
KCL2 221218Z 18019G24KT 12/09 A2968 RMK A01 T01170093  RH  085%=      5-min Rain = 0
KCL2 221219Z 18019G24KT 12/09 A2968 RMK A01 T01170093  RH  085%=      5-min Rain = 0
KCL2 221220Z 18022G27KT 12/09 A2968 RMK A01 T01170093  RH  085%=      5-min Rain = 0
KCL2 221221Z 18021KT 12/09 A2968 RMK A01 T01170093  RH  085%=      5-min Rain = 0
KCL2 221222Z 18019G25KT 12/09 A2968 RMK A01 T01170093  RH  085%=      5-min Rain = 0
KCL2 221223Z 18018KT 12/09 A2968 RMK A01 T01170093  RH  085%=      5-min Rain = 0
KCL2 221224Z 18022G29KT 12/09 A2968 RMK A01 T01170093  RH  085%=      5-min Rain = 0
KCL2 221225Z 18023G30KT 12/09 A2968 RMK A01 T01170093  RH  085%=      5-min Rain = 0
KCL2 221226Z 18019G27KT 12/09 A2968 RMK A01 T01170093  RH  085%=      5-min Rain = 0
KCL2 221227Z 18023G28KT 12/09 A2968 RMK A01 T01180093  RH  085%=      5-min Rain = 0
KCL2 221228Z 17024KT 12/09 A2968 RMK A01 T01170093  RH  085%=      5-min Rain = 0
KCL2 221229Z 18021G26KT 12/09 A2968 RMK A01 T01180093  RH  085%=      5-min Rain = 0
KCL2 221230Z 18022KT 12/09 A2968 RMK A01 T01170093  RH  085%=      5-min Rain = 0
KCL2 221231Z 18019G26KT 12/09 A2968 RMK A01 T01180093  RH  085%=      5-min Rain = 0
KCL2 221232Z 18019KT 12/09 A2968 RMK A01 T01170093  RH  085%=      5-min Rain = 0
KCL2 221233Z 18017KT 12/09 A2968 RMK A01 T01170093  RH  085%=      5-min Rain = 0
KCL2 221234Z 18018G24KT 12/09 A2968 RMK A01 T01160093  RH  085%=      5-min Rain = 0
KCL2 221235Z 18020G25KT 12/09 A2968 RMK A01 T01160093  RH  086%=      5-min Rain = 0
KCL2 221236Z 18020G25KT 12/09 A2968 RMK A01 T01160093  RH  086%=      5-min Rain = 0
KCL2 221237Z 18017KT 12/09 A2968 RMK A01 T01160093  RH  085%=      5-min Rain = 0
KCL2 221238Z 18020KT 12/09 A2968 RMK A01 T01160093  RH  086%=      5-min Rain = 0
KCL2 221239Z 18022KT 12/09 A2968 RMK A01 T01160093  RH  086%=      5-min Rain = 0
KCL2 221240Z 18019KT 12/09 A2968 RMK A01 T01160093  RH  086%=      5-min Rain = 0
KCL2 221241Z 18021KT 12/09 A2968 RMK A01 T01160093  RH  085%=      5-min Rain = 0
KCL2 221242Z 18018KT 12/09 A2968 RMK A01 T01170093  RH  085%=      5-min Rain = 0
KCL2 221243Z 18016KT 12/09 A2968 RMK A01 T01160092  RH  086%=      5-min Rain = 0
KCL2 221244Z 18021KT 12/09 A2968 RMK A01 T01150093  RH  086%=      5-min Rain = 0
KCL2 221245Z 18020KT 12/09 A2968 RMK A01 T01150092  RH  086%=      5-min Rain = 0
KCL2 221246Z 18021G27KT 12/09 A2968 RMK A01 T01150092  RH  086%=      5-min Rain = 0
KCL2 221247Z 18021G26KT 12/09 A2968 RMK A01 T01160093  RH  086%=      5-min Rain = 0
KCL2 221248Z 18020KT 12/09 A2969 RMK A01 T01160093  RH  086%=      5-min Rain = 0
KCL2 221249Z 18018KT 12/09 A2969 RMK A01 T01160092  RH  086%=      5-min Rain = 0
KCL2 221250Z 18019G25KT 12/09 A2969 RMK A01 T01160093  RH  086%=      5-min Rain = 0
KCL2 221251Z 18019KT 12/09 A2969 RMK A01 T01160093  RH  086%=      5-min Rain = 0
KCL2 221252Z 18020KT 12/09 A2969 RMK A01 T01160093  RH  086%=      5-min Rain = 0
KCL2 221253Z 19021G28KT 12/09 A2969 RMK A01 T01160093  RH  086%=      5-min Rain = 0
KCL2 221254Z 18019KT 12/09 A2969 RMK A01 T01160093  RH  086%=      5-min Rain = 0
KCL2 221255Z 18020G25KT 12/09 A2969 RMK A01 T01160093  RH  086%=      5-min Rain = 0
KCL2 221256Z 18020KT 12/09 A2969 RMK A01 T01160093  RH  086%=      5-min Rain = 0
KCL2 221257Z 18019KT 12/09 A2969 RMK A01 T01160093  RH  086%=      5-min Rain = 0
KCL2 221258Z 18019KT 12/09 A2969 RMK A01 T01160093  RH  086%=      5-min Rain = 0
KCL2 221259Z 18021KT 12/09 A2969 RMK A01 T01150093  RH  086%=      5-min Rain = 0
KCL2 221300Z 18020KT 12/09 A2969 RMK A01 T01150093  RH  086%=      5-min Rain = 0
KCL2 221301Z 18019KT 12/09 A2969 RMK A01 T01150093  RH  086%=      5-min Rain = 0
KCL2 221302Z 18019G24KT 12/09 A2969 RMK A01 T01150092  RH  086%=      5-min Rain = 0
KCL2 221303Z 18019G25KT 12/09 A2969 RMK A01 T01150093  RH  086%=      5-min Rain = 0
KCL2 221304Z 18017G24KT 12/09 A2969 RMK A01 T01150093  RH  086%=      5-min Rain = 0
KCL2 221305Z 18019G25KT 12/09 A2969 RMK A01 T01150093  RH  086%=      5-min Rain = 0
KCL2 221306Z 19020KT 12/09 A2969 RMK A01 T01150093  RH  086%=      5-min Rain = 0
KCL2 221307Z 18019G26KT 12/09 A2969 RMK A01 T01150093  RH  086%=      5-min Rain = 0
KCL2 221308Z 18016G21KT 12/09 A2969 RMK A01 T01150093  RH  086%=      5-min Rain = 0
KCL2 221309Z 18018G24KT 12/09 A2969 RMK A01 T01150093  RH  086%=      5-min Rain = 0
KCL2 221310Z 18020G27KT 12/09 A2969 RMK A01 T01150093  RH  086%=      5-min Rain = 0
KCL2 221311Z 18019G25KT 12/09 A2969 RMK A01 T01150093  RH  086%=      5-min Rain = 0
KCL2 221312Z 18020KT 12/09 A2969 RMK A01 T01150093  RH  086%=      5-min Rain = 0
KCL2 221313Z 18020G25KT 12/09 A2969 RMK A01 T01150093  RH  086%=      5-min Rain = 0
KCL2 221314Z 18021G27KT 12/09 A2969 RMK A01 T01150093  RH  086%=      5-min Rain = 0
KCL2 221315Z 18018KT 12/09 A2969 RMK A01 T01150093  RH  086%=      5-min Rain = 0
KCL2 221316Z 18017G24KT 12/09 A297 RMK A01 T01150093  RH  086%=      5-min Rain = 0
KCL2 221317Z 18018KT 12/09 A297 RMK A01 T01150093  RH  086%=      5-min Rain = 0
KCL2 221318Z 18018KT 12/09 A297 RMK A01 T01150093  RH  086%=      5-min Rain = 0
KCL2 221319Z 18021G26KT 12/09 A297 RMK A01 T01150093  RH  087%=      5-min Rain = 0
KCL2 221320Z 18019G24KT 12/09 A297 RMK A01 T01150093  RH  087%=      5-min Rain = 0
KCL2 221321Z 18018G25KT 12/09 A297 RMK A01 T01150093  RH  086%=      5-min Rain = 0
KCL2 221322Z 18018G25KT 12/09 A297 RMK A01 T01150093  RH  086%=      5-min Rain = 0
KCL2 221323Z 18017KT 12/09 A297 RMK A01 T01150093  RH  086%=      5-min Rain = 0
KCL2 221324Z 18019G24KT 12/09 A297 RMK A01 T01150093  RH  086%=      5-min Rain = 0
KCL2 221325Z 18019G24KT 12/09 A297 RMK A01 T01150093  RH  086%=      5-min Rain = 0
KCL2 221326Z 18018KT 12/09 A297 RMK A01 T01150093  RH  086%=      5-min Rain = 0
KCL2 221327Z 18016KT 12/09 A297 RMK A01 T01150093  RH  086%=      5-min Rain = 0
KCL2 221328Z 18017KT 12/09 A297 RMK A01 T01150093  RH  086%=      5-min Rain = 0
KCL2 221329Z 18016KT 12/09 A297 RMK A01 T01150093  RH  086%=      5-min Rain = 0
KCL2 221330Z 19017KT 12/09 A297 RMK A01 T01150093  RH  087%=      5-min Rain = 0
KCL2 221331Z 18019KT 12/09 A297 RMK A01 T01150093  RH  087%=      5-min Rain = 0
KCL2 221332Z 18017KT 12/09 A297 RMK A01 T01150093  RH  087%=      5-min Rain = 0
KCL2 221333Z 18020G25KT 12/09 A2971 RMK A01 T01150093  RH  086%=      5-min Rain = 0
KCL2 221334Z 18018KT 12/09 A297 RMK A01 T01150093  RH  086%=      5-min Rain = 0
KCL2 221335Z 19018G24KT 12/09 A297 RMK A01 T01160093  RH  086%=      5-min Rain = 0
KCL2 221336Z 18020G25KT 12/09 A297 RMK A01 T01160093  RH  086%=      5-min Rain = 0
KCL2 221337Z 19017KT 12/09 A297 RMK A01 T01160093  RH  086%=      5-min Rain = 0
KCL2 221338Z 19017KT 12/09 A2971 RMK A01 T01160093  RH  086%=      5-min Rain = 0
KCL2 221339Z 19017G23KT 12/09 A297 RMK A01 T01160093  RH  086%=      5-min Rain = 0
KCL2 221340Z 18019KT 12/09 A297 RMK A01 T01160093  RH  086%=      5-min Rain = 0
KCL2 221341Z 18018KT 12/09 A297 RMK A01 T01160093  RH  086%=      5-min Rain = 0
KCL2 221342Z 18018G24KT 12/09 A2971 RMK A01 T01160093  RH  086%=      5-min Rain = 0
KCL2 221343Z 18019G25KT 12/09 A297 RMK A01 T01160094  RH  086%=      5-min Rain = 0
KCL2 221344Z 18015KT 12/09 A2971 RMK A01 T01170094  RH  086%=      5-min Rain = 0
KCL2 221345Z 18018G24KT 12/09 A2971 RMK A01 T01170094  RH  086%=      5-min Rain = 0
KCL2 221346Z 18022KT 12/09 A2971 RMK A01 T01160094  RH  086%=      5-min Rain = 0
KCL2 221347Z 19023G28KT 12/09 A2971 RMK A01 T01170094  RH  086%=      5-min Rain = 0
KCL2 221348Z 18020KT 12/09 A2971 RMK A01 T01180094  RH  085%=      5-min Rain = 0
KCL2 221349Z 18018G25KT 12/09 A2971 RMK A01 T01180094  RH  085%=      5-min Rain = 0
KCL2 221350Z 18020G26KT 12/09 A2971 RMK A01 T01180094  RH  085%=      5-min Rain = 0
KCL2 221351Z 19019G24KT 12/09 A2971 RMK A01 T01180094  RH  085%=      5-min Rain = 0
KCL2 221352Z 19017KT 12/09 A2972 RMK A01 T01170093  RH  085%=      5-min Rain = 0
KCL2 221353Z 19016KT 12/09 A2972 RMK A01 T01180094  RH  085%=      5-min Rain = 0
KCL2 221354Z 19015G20KT 12/09 A2972 RMK A01 T01180094  RH  085%=      5-min Rain = 0
KCL2 221355Z 19015G20KT 12/09 A2972 RMK A01 T01180094  RH  085%=      5-min Rain = 0
KCL2 221356Z 19017KT 12/09 A2972 RMK A01 T01170093  RH  085%=      5-min Rain = 0
KCL2 221357Z 20013G19KT 12/09 A2972 RMK A01 T01180094  RH  085%=      5-min Rain = 0
KCL2 221358Z 20012KT 12/09 A2972 RMK A01 T01170093  RH  085%=      5-min Rain = 0
KCL2 221359Z 20013KT 12/09 A2972 RMK A01 T01170093  RH  085%=      5-min Rain = 0
KCL2 221400Z 20011KT 12/09 A2972 RMK A01 T01170094  RH  085%=      5-min Rain = 0
KCL2 221401Z 20013G20KT 12/09 A2972 RMK A01 T01170094  RH  085%=      5-min Rain = 0
KCL2 221402Z 20014KT 12/09 A2972 RMK A01 T01180094  RH  085%=      5-min Rain = 0
KCL2 221403Z 19015KT 12/09 A2972 RMK A01 T01180094  RH  085%=      5-min Rain = 0
KCL2 221404Z 19015KT 12/09 A2972 RMK A01 T01180094  RH  085%=      5-min Rain = 0
KCL2 221405Z 20014KT 12/09 A2972 RMK A01 T01180094  RH  085%=      5-min Rain = 0
KCL2 221406Z 19015KT 12/09 A2973 RMK A01 T01180094  RH  085%=      5-min Rain = 0
KCL2 221407Z 19013KT 12/09 A2972 RMK A01 T01180094  RH  085%=      5-min Rain = 0
KCL2 221408Z 20013KT 12/09 A2972 RMK A01 T01180094  RH  085%=      5-min Rain = 0
KCL2 221409Z 19012KT 12/09 A2972 RMK A01 T01180094  RH  085%=      5-min Rain = 0
KCL2 221410Z 19015KT 12/09 A2972 RMK A01 T01190094  RH  085%=      5-min Rain = 0
KCL2 221411Z 19013KT 12/09 A2972 RMK A01 T01180094  RH  085%=      5-min Rain = 0
KCL2 221412Z 20015KT 12/09 A2973 RMK A01 T01190094  RH  085%=      5-min Rain = 0
KCL2 221413Z 20015KT 12/09 A2973 RMK A01 T01190094  RH  085%=      5-min Rain = 0
KCL2 221414Z 19014KT 12/09 A2973 RMK A01 T01190094  RH  085%=      5-min Rain = 0
KCL2 221415Z 19009KT 12/09 A2974 RMK A01 T01190094  RH  085%=      5-min Rain = 0
KCL2 221416Z 20010KT 12/09 A2974 RMK A01 T01190094  RH  085%=      5-min Rain = 0
KCL2 221417Z 20011KT 12/09 A2974 RMK A01 T01190094  RH  085%=      5-min Rain = 0
KCL2 221418Z 21009G15KT 12/09 A2974 RMK A01 T01190094  RH  085%=      5-min Rain = 0
KCL2 221419Z 22011KT 12/09 A2974 RMK A01 T01190094  RH  085%=      5-min Rain = 0
KCL2 221420Z 22010KT 12/09 A2975 RMK A01 T01200094  RH  084%=      5-min Rain = 0
KCL2 221421Z 23008KT 12/10 A2975 RMK A01 T01200095  RH  084%=      5-min Rain = 0
KCL2 221422Z 24006KT 12/09 A2975 RMK A01 T01200094  RH  084%=      5-min Rain = 0
KCL2 221423Z 23006KT 12/09 A2975 RMK A01 T01200094  RH  084%=      5-min Rain = 0
KCL2 221424Z 22007KT 12/09 A2976 RMK A01 T01200094  RH  084%=      5-min Rain = 0
KCL2 221425Z 23006KT 12/10 A2976 RMK A01 T01200095  RH  084%=      5-min Rain = 0
KCL2 221426Z 23008KT 12/10 A2976 RMK A01 T01210095  RH  084%=      5-min Rain = 0
KCL2 221427Z 24006KT 12/10 A2976 RMK A01 T01210095  RH  084%=      5-min Rain = 0
KCL2 221428Z 25005KT 12/09 A2976 RMK A01 T01210094  RH  084%=      5-min Rain = 0
KCL2 221429Z 25005KT 12/10 A2976 RMK A01 T01210095  RH  084%=      5-min Rain = 0
KCL2 221430Z 23007KT 12/10 A2976 RMK A01 T01210095  RH  084%=      5-min Rain = 0
KCL2 221431Z 24007KT 12/10 A2976 RMK A01 T01210095  RH  084%=      5-min Rain = 0
KCL2 221432Z 23009KT 12/10 A2976 RMK A01 T01210095  RH  084%=      5-min Rain = 0
KCL2 221433Z 23008KT 12/10 A2976 RMK A01 T01210095  RH  084%=      5-min Rain = 0
KCL2 221434Z 22008KT 12/10 A2977 RMK A01 T01220095  RH  084%=      5-min Rain = 0
KCL2 221435Z 22010KT 12/10 A2977 RMK A01 T01220095  RH  084%=      5-min Rain = 0
KCL2 221436Z 21008KT 12/10 A2976 RMK A01 T01220095  RH  084%=      5-min Rain = 0
KCL2 221437Z 20007KT 12/10 A2976 RMK A01 T01220095  RH  084%=      5-min Rain = 0
KCL2 221438Z 20008KT 12/10 A2976 RMK A01 T01220095  RH  084%=      5-min Rain = 0
KCL2 221439Z 20010KT 12/10 A2976 RMK A01 T01220095  RH  084%=      5-min Rain = 0
KCL2 221440Z 20009KT 12/10 A2976 RMK A01 T01220095  RH  083%=      5-min Rain = 0
KCL2 221441Z 22008KT 12/10 A2977 RMK A01 T01230095  RH  083%=      5-min Rain = 0
KCL2 221442Z 22007KT 12/10 A2977 RMK A01 T01230095  RH  083%=      5-min Rain = 0
KCL2 221443Z 22006KT 12/10 A2977 RMK A01 T01230095  RH  083%=      5-min Rain = 0
KCL2 221444Z 23008KT 12/10 A2977 RMK A01 T01230096  RH  083%=      5-min Rain = 0
KCL2 221445Z 24008KT 12/10 A2977 RMK A01 T01240095  RH  083%=      5-min Rain = 0
KCL2 221446Z 24008KT 12/10 A2977 RMK A01 T01240095  RH  083%=      5-min Rain = 0
KCL2 221447Z 23008KT 12/10 A2977 RMK A01 T01240095  RH  083%=      5-min Rain = 0
KCL2 221448Z 23008KT 12/10 A2978 RMK A01 T01240095  RH  083%=      5-min Rain = 0
KCL2 221449Z 23009KT 12/10 A2978 RMK A01 T01240096  RH  083%=      5-min Rain = 0
KCL2 221450Z 23007KT 12/10 A2978 RMK A01 T01240095  RH  083%=      5-min Rain = 0
KCL2 221451Z 22008KT 12/10 A2978 RMK A01 T01240096  RH  083%=      5-min Rain = 0
KCL2 221452Z 23007KT 12/10 A2978 RMK A01 T01240096  RH  083%=      5-min Rain = 0
KCL2 221453Z 22009KT 12/10 A2978 RMK A01 T01240096  RH  083%=      5-min Rain = 0
KCL2 221454Z 22008KT 12/10 A2978 RMK A01 T01240096  RH  083%=      5-min Rain = 0
KCL2 221455Z 21007KT 12/10 A2978 RMK A01 T01240096  RH  083%=      5-min Rain = 0
KCL2 221456Z 23008KT 12/10 A2978 RMK A01 T01240096  RH  083%=      5-min Rain = 0
KCL2 221457Z 21009KT 12/10 A2978 RMK A01 T01240096  RH  083%=      5-min Rain = 0
KCL2 221458Z 21009KT 13/10 A2978 RMK A01 T01250096  RH  083%=      5-min Rain = 0
KCL2 221459Z 21010KT 13/10 A2978 RMK A01 T01250096  RH  083%=      5-min Rain = 0
KCL2 221500Z 20011KT 13/10 A2977 RMK A01 T01250096  RH  082%=      5-min Rain = 0
KCL2 221501Z 20009KT 13/10 A2977 RMK A01 T01250096  RH  082%=      5-min Rain = 0
KCL2 221502Z 20008KT 13/10 A2977 RMK A01 T01260096  RH  082%=      5-min Rain = 0
KCL2 221503Z 20008KT 13/10 A2977 RMK A01 T01250096  RH  082%=      5-min Rain = 0
KCL2 221504Z 21010KT 13/10 A2977 RMK A01 T01260096  RH  082%=      5-min Rain = 0
KCL2 221505Z 20008KT 13/10 A2977 RMK A01 T01260096  RH  082%=      5-min Rain = 0
KCL2 221506Z 20008KT 13/10 A2977 RMK A01 T01260097  RH  082%=      5-min Rain = 0
KCL2 221507Z 21010KT 13/10 A2977 RMK A01 T01260097  RH  082%=      5-min Rain = 0
KCL2 221508Z 20009KT 13/10 A2977 RMK A01 T01270097  RH  082%=      5-min Rain = 0
KCL2 221509Z 21013KT 13/10 A2977 RMK A01 T01270097  RH  082%=      5-min Rain = 0
KCL2 221510Z 21011KT 13/10 A2978 RMK A01 T01270096  RH  082%=      5-min Rain = 0
KCL2 221511Z 20010KT 13/10 A2978 RMK A01 T01270097  RH  082%=      5-min Rain = 0
KCL2 221512Z 20012KT 13/10 A2978 RMK A01 T01280097  RH  082%=      5-min Rain = 0
KCL2 221513Z 21011KT 13/10 A2978 RMK A01 T01280097  RH  082%=      5-min Rain = 0
KCL2 221514Z 20011KT 13/10 A2978 RMK A01 T01280097  RH  082%=      5-min Rain = 0
KCL2 221515Z 20011KT 13/10 A2978 RMK A01 T01280097  RH  081%=      5-min Rain = 0
KCL2 221516Z 20011KT 13/10 A2978 RMK A01 T01290097  RH  081%=      5-min Rain = 0
KCL2 221517Z 20013KT 13/10 A2977 RMK A01 T01290097  RH  081%=      5-min Rain = 0
KCL2 221518Z 21011G16KT 13/10 A2977 RMK A01 T01290097  RH  081%=      5-min Rain = 0
KCL2 221519Z 21012KT 13/10 A2977 RMK A01 T01290098  RH  081%=      5-min Rain = 0
KCL2 221520Z 20011G16KT 13/10 A2977 RMK A01 T01290097  RH  081%=      5-min Rain = 0
KCL2 221521Z 21013KT 13/10 A2977 RMK A01 T01290097  RH  081%=      5-min Rain = 0
KCL2 221522Z 21011KT 13/10 A2978 RMK A01 T01300098  RH  081%=      5-min Rain = 0
KCL2 221523Z 21010KT 13/10 A2978 RMK A01 T01300097  RH  081%=      5-min Rain = 0
KCL2 221524Z 22011KT 13/10 A2978 RMK A01 T01300098  RH  081%=      5-min Rain = 0
KCL2 221525Z 22012KT 13/10 A2978 RMK A01 T01300097  RH  081%=      5-min Rain = 0
KCL2 221526Z 23011KT 13/10 A2978 RMK A01 T01300097  RH  080%=      5-min Rain = 0
KCL2 221527Z 23009KT 13/10 A2979 RMK A01 T01310098  RH  080%=      5-min Rain = 0
KCL2 221528Z 24010KT 13/10 A2979 RMK A01 T01310098  RH  080%=      5-min Rain = 0
KCL2 221529Z 24010KT 13/10 A2979 RMK A01 T01310098  RH  080%=      5-min Rain = 0
KCL2 221530Z 24010KT 13/10 A2979 RMK A01 T01310098  RH  080%=      5-min Rain = 0
KCL2 221531Z 24012KT 13/10 A2979 RMK A01 T01310098  RH  080%=      5-min Rain = 0
KCL2 221532Z 24012KT 13/10 A2979 RMK A01 T01310097  RH  080%=      5-min Rain = 0
KCL2 221533Z 23012KT 13/10 A2979 RMK A01 T01310097  RH  080%=      5-min Rain = 0
KCL2 221534Z 23010KT 13/10 A2979 RMK A01 T01310098  RH  080%=      5-min Rain = 0
KCL2 221535Z 23011KT 13/10 A2979 RMK A01 T01310098  RH  080%=      5-min Rain = 0
KCL2 221536Z 24011KT 13/10 A2979 RMK A01 T01310097  RH  080%=      5-min Rain = 0
KCL2 221537Z 23013G18KT 13/10 A2979 RMK A01 T01310097  RH  080%=      5-min Rain = 0
KCL2 221538Z 23015KT 13/10 A2979 RMK A01 T01310097  RH  080%=      5-min Rain = 0
KCL2 221539Z 23011KT 13/10 A2979 RMK A01 T01310097  RH  080%=      5-min Rain = 0
KCL2 221540Z 23011KT 13/10 A2979 RMK A01 T01310097  RH  080%=      5-min Rain = 0
KCL2 221541Z 23010KT 13/10 A2979 RMK A01 T01310098  RH  080%=      5-min Rain = 0
KCL2 221542Z 22012KT 13/10 A2979 RMK A01 T01310098  RH  080%=      5-min Rain = 0
KCL2 221543Z 22010KT 13/10 A2979 RMK A01 T01320098  RH  080%=      5-min Rain = 0
KCL2 221544Z 22010KT 13/10 A2979 RMK A01 T01320098  RH  080%=      5-min Rain = 0
KCL2 221545Z 22009KT 13/10 A2979 RMK A01 T01330098  RH  079%=      5-min Rain = 0
KCL2 221546Z 23010KT 13/10 A2979 RMK A01 T01330098  RH  079%=      5-min Rain = 0
KCL2 221547Z 24011KT 13/10 A2979 RMK A01 T01340098  RH  079%=      5-min Rain = 0
KCL2 221548Z 24009KT 13/10 A2979 RMK A01 T01340098  RH  079%=      5-min Rain = 0
KCL2 221549Z 24007KT 13/10 A2979 RMK A01 T01340099  RH  079%=      5-min Rain = 0
KCL2 221550Z 25010KT 13/10 A298 RMK A01 T01340099  RH  079%=      5-min Rain = 0
KCL2 221551Z 24009KT 14/10 A298 RMK A01 T01350098  RH  078%=      5-min Rain = 0
KCL2 221552Z 26007KT 13/10 A298 RMK A01 T01340098  RH  079%=      5-min Rain = 0
KCL2 221553Z 25008KT 13/10 A298 RMK A01 T01340099  RH  079%=      5-min Rain = 0
KCL2 221554Z 26006KT 13/10 A298 RMK A01 T01330098  RH  079%=      5-min Rain = 0
KCL2 221555Z 25008KT 13/10 A298 RMK A01 T01330099  RH  080%=      5-min Rain = 0
KCL2 221556Z 25008KT 13/10 A298 RMK A01 T01330098  RH  079%=      5-min Rain = 0
KCL2 221557Z 25008KT 13/10 A298 RMK A01 T01330098  RH  079%=      5-min Rain = 0
KCL2 221558Z 23010KT 13/10 A2979 RMK A01 T01330098  RH  079%=      5-min Rain = 0
KCL2 221559Z 24009KT 13/10 A2979 RMK A01 T01330097  RH  079%=      5-min Rain = 0
KCL2 221600Z 23006KT 13/10 A2979 RMK A01 T01330098  RH  079%=      5-min Rain = 0
KCL2 221601Z 23010KT 13/10 A2979 RMK A01 T01340098  RH  079%=      5-min Rain = 0
KCL2 221602Z 24010KT 13/10 A2979 RMK A01 T01340097  RH  078%=      5-min Rain = 0
KCL2 221603Z 24010KT 13/10 A2979 RMK A01 T01340098  RH  079%=      5-min Rain = 0
KCL2 221604Z 23011KT 13/10 A298 RMK A01 T01340097  RH  078%=      5-min Rain = 0
KCL2 221605Z 25012KT 13/10 A298 RMK A01 T01340097  RH  078%=      5-min Rain = 0
KCL2 221606Z 25012KT 13/10 A298 RMK A01 T01340097  RH  078%=      5-min Rain = 0
KCL2 221607Z 25010KT 13/10 A298 RMK A01 T01340097  RH  078%=      5-min Rain = 0
KCL2 221608Z 25009KT 13/10 A298 RMK A01 T01340097  RH  079%=      5-min Rain = 0
KCL2 221609Z 24009KT 13/10 A298 RMK A01 T01340098  RH  079%=      5-min Rain = 0
KCL2 221610Z 24010KT 14/10 A298 RMK A01 T01350098  RH  078%=      5-min Rain = 0
KCL2 221611Z 23011KT 14/10 A298 RMK A01 T01350098  RH  078%=      5-min Rain = 0
KCL2 221612Z 23012KT 14/10 A298 RMK A01 T01360097  RH  078%=      5-min Rain = 0
KCL2 221613Z 24012KT 14/10 A298 RMK A01 T01350097  RH  078%=      5-min Rain = 0
KCL2 221614Z 24009KT 14/10 A298 RMK A01 T01360098  RH  078%=      5-min Rain = 0
KCL2 221615Z 24008KT 14/10 A298 RMK A01 T01350097  RH  078%=      5-min Rain = 0
KCL2 221616Z 23008KT 14/10 A298 RMK A01 T01360098  RH  078%=      5-min Rain = 0
KCL2 221617Z 24010KT 14/10 A298 RMK A01 T01360098  RH  078%=      5-min Rain = 0
KCL2 221618Z 24010KT 14/10 A298 RMK A01 T01370098  RH  077%=      5-min Rain = 0
KCL2 221619Z 24009KT 14/10 A298 RMK A01 T01370098  RH  077%=      5-min Rain = 0
KCL2 221620Z 24013KT 14/10 A298 RMK A01 T01370098  RH  077%=      5-min Rain = 0
KCL2 221621Z 24010KT 14/10 A298 RMK A01 T01370097  RH  077%=      5-min Rain = 0
KCL2 221622Z 24010KT 14/10 A298 RMK A01 T01360098  RH  078%=      5-min Rain = 0
KCL2 221623Z 25010KT 14/10 A298 RMK A01 T01370099  RH  078%=      5-min Rain = 0
KCL2 221624Z 24009KT 14/10 A298 RMK A01 T01370099  RH  078%=      5-min Rain = 0
KCL2 221625Z 25010KT 14/10 A298 RMK A01 T01380099  RH  077%=      5-min Rain = 0
KCL2 221626Z 25010KT 14/10 A2981 RMK A01 T01380099  RH  077%=      5-min Rain = 0
KCL2 221627Z 25009KT 14/10 A298 RMK A01 T01390099  RH  077%=      5-min Rain = 0
KCL2 221628Z 26011KT 14/10 A298 RMK A01 T01380099  RH  077%=      5-min Rain = 0
KCL2 221629Z 26012KT 14/10 A2981 RMK A01 T01370098  RH  077%=      5-min Rain = 0
KCL2 221630Z 26012KT 14/10 A2981 RMK A01 T01360097  RH  077%=      5-min Rain = 0
KCL2 221631Z 26011KT 14/10 A2981 RMK A01 T01350097  RH  078%=      5-min Rain = 0
KCL2 221632Z 26010KT 13/10 A2981 RMK A01 T01340097  RH  078%=      5-min Rain = 0
KCL2 221633Z 25013KT 13/10 A2981 RMK A01 T01340097  RH  078%=      5-min Rain = 0
KCL2 221634Z 25012KT 13/10 A2981 RMK A01 T01340097  RH  078%=      5-min Rain = 0
KCL2 221635Z 25010G15KT 13/10 A2981 RMK A01 T01340098  RH  079%=      5-min Rain = 0
KCL2 221636Z 26013KT 13/10 A2981 RMK A01 T01340097  RH  079%=      5-min Rain = 0
KCL2 221637Z 26012KT 13/10 A2981 RMK A01 T01330097  RH  079%=      5-min Rain = 0
KCL2 221638Z 25014KT 13/10 A2981 RMK A01 T01330098  RH  079%=      5-min Rain = 0
KCL2 221639Z 25013KT 13/10 A2981 RMK A01 T01330097  RH  079%=      5-min Rain = 0
KCL2 221640Z 24015KT 13/10 A2981 RMK A01 T01330097  RH  079%=      5-min Rain = 0
KCL2 221641Z 24014KT 13/10 A2981 RMK A01 T01330097  RH  079%=      5-min Rain = 0
KCL2 221642Z 24015KT 13/10 A2981 RMK A01 T01330097  RH  079%=      5-min Rain = 0
KCL2 221643Z 24014KT 13/10 A2981 RMK A01 T01330097  RH  079%=      5-min Rain = 0
KCL2 221644Z 24011KT 13/10 A2981 RMK A01 T01330097  RH  079%=      5-min Rain = 0
KCL2 221645Z 24010KT 13/10 A2981 RMK A01 T01340097  RH  079%=      5-min Rain = 0
KCL2 221646Z 24010KT 14/10 A2981 RMK A01 T01350098  RH  078%=      5-min Rain = 0
KCL2 221647Z 24009KT 14/10 A2981 RMK A01 T01350097  RH  078%=      5-min Rain = 0
KCL2 221648Z 24011KT 14/10 A2981 RMK A01 T01350098  RH  078%=      5-min Rain = 0
KCL2 221649Z 24010KT 14/10 A2981 RMK A01 T01350097  RH  077%=      5-min Rain = 0
KCL2 221650Z 24009KT 14/10 A2981 RMK A01 T01360097  RH  077%=      5-min Rain = 0
KCL2 221651Z 24013KT 14/10 A2981 RMK A01 T01360097  RH  078%=      5-min Rain = 0
KCL2 221652Z 25014KT 14/10 A2981 RMK A01 T01350096  RH  077%=      5-min Rain = 0
KCL2 221653Z 24014KT 14/10 A2981 RMK A01 T01350097  RH  077%=      5-min Rain = 0
KCL2 221654Z 24015KT 14/10 A2981 RMK A01 T01350096  RH  077%=      5-min Rain = 0
KCL2 221655Z 25015KT 14/10 A2981 RMK A01 T01350096  RH  077%=      5-min Rain = 0
KCL2 221656Z 24011KT 13/10 A2982 RMK A01 T01340096  RH  078%=      5-min Rain = 0
KCL2 221657Z 24011KT 13/10 A2982 RMK A01 T01340096  RH  078%=      5-min Rain = 0
KCL2 221658Z 24013KT 13/10 A2982 RMK A01 T01340096  RH  078%=      5-min Rain = 0
KCL2 221659Z 24011KT 13/10 A2982 RMK A01 T01340096  RH  078%=      5-min Rain = 0
KCL2 221700Z 24011KT 13/10 A2982 RMK A01 T01340096  RH  078%=      5-min Rain = 0
KCL2 221701Z 24011KT 13/10 A2982 RMK A01 T01340096  RH  078%=      5-min Rain = 0
KCL2 221702Z 24011KT 13/10 A2982 RMK A01 T01340096  RH  078%=      5-min Rain = 0
KCL2 221703Z 24012KT 13/10 A2982 RMK A01 T01340096  RH  078%=      5-min Rain = 0
KCL2 221704Z 24013KT 13/10 A2982 RMK A01 T01340096  RH  078%=      5-min Rain = 0
KCL2 221705Z 24013KT 13/10 A2982 RMK A01 T01340096  RH  078%=      5-min Rain = 0
KCL2 221706Z 24012KT 13/10 A2982 RMK A01 T01340096  RH  078%=      5-min Rain = 0
KCL2 221707Z 24012KT 13/10 A2982 RMK A01 T01340096  RH  078%=      5-min Rain = 0
KCL2 221708Z 24014KT 13/10 A2982 RMK A01 T01340095  RH  077%=      5-min Rain = 0
KCL2 221709Z 24011KT 13/10 A2982 RMK A01 T01340096  RH  078%=      5-min Rain = 0
KCL2 221710Z 24012KT 13/10 A2982 RMK A01 T01340096  RH  078%=      5-min Rain = 0
KCL2 221711Z 24013KT 13/10 A2982 RMK A01 T01340096  RH  078%=      5-min Rain = 0
KCL2 221712Z 25012KT 13/10 A2982 RMK A01 T01340096  RH  077%=      5-min Rain = 0
KCL2 221713Z 23010KT 14/10 A2982 RMK A01 T01350097  RH  078%=      5-min Rain = 0
KCL2 221714Z 24012KT 14/10 A2982 RMK A01 T01360097  RH  077%=      5-min Rain = 0
KCL2 221715Z 24010KT 14/10 A2982 RMK A01 T01370097  RH  077%=      5-min Rain = 0
KCL2 221716Z 23010KT 14/10 A2982 RMK A01 T01370097  RH  077%=      5-min Rain = 0
KCL2 221717Z 24007KT 14/10 A2982 RMK A01 T01380098  RH  077%=      5-min Rain = 0
KCL2 221718Z 23008KT 14/10 A2982 RMK A01 T01390099  RH  076%=      5-min Rain = 0
KCL2 221719Z 23009KT 14/10 A2982 RMK A01 T01400099  RH  076%=      5-min Rain = 0
KCL2 221720Z 24012KT 14/10 A2981 RMK A01 T01410098  RH  075%=      5-min Rain = 0
KCL2 221721Z 23012KT 14/10 A2982 RMK A01 T01410098  RH  075%=      5-min Rain = 0
KCL2 221722Z 23013KT 14/10 A2982 RMK A01 T01410098  RH  075%=      5-min Rain = 0
KCL2 221723Z 23011KT 14/10 A2982 RMK A01 T01410098  RH  075%=      5-min Rain = 0
KCL2 221724Z 23011KT 14/10 A2982 RMK A01 T01400098  RH  075%=      5-min Rain = 0
KCL2 221725Z 24011KT 14/10 A2982 RMK A01 T01410098  RH  075%=      5-min Rain = 0
KCL2 221726Z 24011KT 14/10 A2982 RMK A01 T01420098  RH  075%=      5-min Rain = 0
KCL2 221727Z 23011KT 14/10 A2982 RMK A01 T01420098  RH  075%=      5-min Rain = 0
KCL2 221728Z 23012KT 14/10 A2981 RMK A01 T01420098  RH  075%=      5-min Rain = 0
KCL2 221729Z 23011KT 14/10 A2981 RMK A01 T01420098  RH  075%=      5-min Rain = 0
KCL2 221730Z 22012KT 14/10 A2981 RMK A01 T01420097  RH  074%=      5-min Rain = 0
KCL2 221731Z 23012KT 14/10 A2981 RMK A01 T01410097  RH  074%=      5-min Rain = 0
KCL2 221732Z 24010KT 14/10 A2981 RMK A01 T01410098  RH  075%=      5-min Rain = 0
KCL2 221733Z 24009KT 14/10 A2981 RMK A01 T01410098  RH  075%=      5-min Rain = 0
KCL2 221734Z 24010G15KT 14/10 A2981 RMK A01 T01420098  RH  075%=      5-min Rain = 0
KCL2 221735Z 24014KT 14/10 A2981 RMK A01 T01420097  RH  074%=      5-min Rain = 0
KCL2 221736Z 23013KT 14/10 A2981 RMK A01 T01420096  RH  074%=      5-min Rain = 0
KCL2 221737Z 24012KT 14/10 A2981 RMK A01 T01400096  RH  075%=      5-min Rain = 0
KCL2 221738Z 24013KT 14/10 A2981 RMK A01 T01410096  RH  075%=      5-min Rain = 0
KCL2 221739Z 24010KT 14/10 A2981 RMK A01 T01410096  RH  075%=      5-min Rain = 0
KCL2 221740Z 23011KT 14/10 A2981 RMK A01 T01410097  RH  075%=      5-min Rain = 0
KCL2 221741Z 23013KT 14/10 A2981 RMK A01 T01420097  RH  074%=      5-min Rain = 0
KCL2 221742Z 24011KT 14/10 A298 RMK A01 T01420096  RH  074%=      5-min Rain = 0
KCL2 221743Z 24012KT 14/10 A298 RMK A01 T01420097  RH  074%=      5-min Rain = 0
KCL2 221744Z 24011KT 14/10 A298 RMK A01 T01430097  RH  074%=      5-min Rain = 0
KCL2 221745Z 24010KT 14/10 A2981 RMK A01 T01430097  RH  074%=      5-min Rain = 0
KCL2 221746Z 25010KT 14/10 A2981 RMK A01 T01440096  RH  073%=      5-min Rain = 0
KCL2 221747Z 25011KT 14/10 A2981 RMK A01 T01440097  RH  073%=      5-min Rain = 0
KCL2 221748Z 24010KT 15/10 A2981 RMK A01 T01450097  RH  073%=      5-min Rain = 0
KCL2 221749Z 23012KT 15/10 A2981 RMK A01 T01450097  RH  073%=      5-min Rain = 0
KCL2 221750Z 23011KT 14/10 A2981 RMK A01 T01440096  RH  073%=      5-min Rain = 0
KCL2 221751Z 23010KT 14/10 A2981 RMK A01 T01430096  RH  073%=      5-min Rain = 0
KCL2 221752Z 24010KT 14/10 A2981 RMK A01 T01440097  RH  073%=      5-min Rain = 0
KCL2 221753Z 25013KT 15/10 A2981 RMK A01 T01450096  RH  072%=      5-min Rain = 0
KCL2 221754Z 25012KT 15/10 A2981 RMK A01 T01450095  RH  072%=      5-min Rain = 0
KCL2 221755Z 24011KT 15/10 A2981 RMK A01 T01450096  RH  072%=      5-min Rain = 0
KCL2 221756Z 24011KT 15/10 A2981 RMK A01 T01450096  RH  072%=      5-min Rain = 0
KCL2 221757Z 24009KT 15/10 A2981 RMK A01 T01450096  RH  073%=      5-min Rain = 0
KCL2 221758Z 24011KT 15/10 A2981 RMK A01 T01450098  RH  073%=      5-min Rain = 0
KCL2 221759Z 24012KT 15/10 A2981 RMK A01 T01460096  RH  072%=      5-min Rain = 0
KCL2 221800Z 24012KT 15/10 A2981 RMK A01 T01460096  RH  072%=      5-min Rain = 0
KCL2 221801Z 24012KT 15/10 A2981 RMK A01 T01460096  RH  072%=      5-min Rain = 0
KCL2 221802Z 25011KT 15/09 A2981 RMK A01 T01470094  RH  070%=      5-min Rain = 0
KCL2 221803Z 25013KT 15/09 A2981 RMK A01 T01460094  RH  071%=      5-min Rain = 0
KCL2 221804Z 25013KT 15/09 A2981 RMK A01 T01460094  RH  071%=      5-min Rain = 0
KCL2 221805Z 24013KT 15/09 A2981 RMK A01 T01460094  RH  071%=      5-min Rain = 0
KCL2 221806Z 24011KT 15/09 A2981 RMK A01 T01450093  RH  071%=      5-min Rain = 0
KCL2 221807Z 24011KT 15/09 A2981 RMK A01 T01450094  RH  071%=      5-min Rain = 0
KCL2 221808Z 24010KT 15/09 A2981 RMK A01 T01450094  RH  071%=      5-min Rain = 0
KCL2 221809Z 24010KT 15/09 A2981 RMK A01 T01450094  RH  071%=      5-min Rain = 0
KCL2 221810Z 26011KT 15/09 A2981 RMK A01 T01460094  RH  071%=      5-min Rain = 0
KCL2 221811Z 26012KT 15/09 A2981 RMK A01 T01470094  RH  070%=      5-min Rain = 0
KCL2 221812Z 25011KT 15/09 A2981 RMK A01 T01470094  RH  070%=      5-min Rain = 0
KCL2 221813Z 24011KT 15/09 A2981 RMK A01 T01470093  RH  070%=      5-min Rain = 0
KCL2 221814Z 25011KT 15/09 A298 RMK A01 T01480093  RH  070%=      5-min Rain = 0
KCL2 221815Z 25010KT 15/09 A298 RMK A01 T01480094  RH  070%=      5-min Rain = 0
KCL2 221816Z 25011KT 15/09 A298 RMK A01 T01480092  RH  069%=      5-min Rain = 0
KCL2 221817Z 26010KT 15/09 A298 RMK A01 T01480092  RH  069%=      5-min Rain = 0
KCL2 221818Z 26010KT 15/09 A298 RMK A01 T01490093  RH  069%=      5-min Rain = 0
KCL2 221819Z 25010KT 15/10 A2981 RMK A01 T01480095  RH  070%=      5-min Rain = 0
KCL2 221820Z 25009KT 15/09 A2981 RMK A01 T01490094  RH  069%=      5-min Rain = 0
KCL2 221821Z 24010KT 15/09 A2981 RMK A01 T01500094  RH  069%=      5-min Rain = 0
KCL2 221822Z 26011KT 15/09 A2981 RMK A01 T01500092  RH  068%=      5-min Rain = 0
KCL2 221823Z 25012KT 15/09 A2981 RMK A01 T01500092  RH  068%=      5-min Rain = 0
KCL2 221824Z 25012KT 15/09 A2981 RMK A01 T01490091  RH  068%=      5-min Rain = 0
KCL2 221825Z 26010KT 15/09 A2981 RMK A01 T01480091  RH  068%=      5-min Rain = 0
KCL2 221826Z 24010KT 15/09 A2981 RMK A01 T01500092  RH  068%=      5-min Rain = 0
KCL2 221827Z 25011KT 15/09 A2981 RMK A01 T01510091  RH  067%=      5-min Rain = 0
KCL2 221828Z 26011G16KT 15/09 A2981 RMK A01 T01510091  RH  067%=      5-min Rain = 0
KCL2 221829Z 26012KT 15/09 A2981 RMK A01 T01510090  RH  067%=      5-min Rain = 0
KCL2 221830Z 25012KT 15/09 A2981 RMK A01 T01510090  RH  067%=      5-min Rain = 0
KCL2 221831Z 24012KT 15/09 A2981 RMK A01 T01500090  RH  067%=      5-min Rain = 0
KCL2 221832Z 24012KT 15/09 A2981 RMK A01 T01500091  RH  068%=      5-min Rain = 0
KCL2 221833Z 24011KT 15/09 A2981 RMK A01 T01490091  RH  068%=      5-min Rain = 0
KCL2 221834Z 24011KT 15/09 A2981 RMK A01 T01480091  RH  069%=      5-min Rain = 0
KCL2 221835Z 24010KT 15/09 A2981 RMK A01 T01480091  RH  069%=      5-min Rain = 0
KCL2 221836Z 23008KT 15/09 A2981 RMK A01 T01480092  RH  069%=      5-min Rain = 0
KCL2 221837Z 23009KT 15/09 A2981 RMK A01 T01490093  RH  069%=      5-min Rain = 0
KCL2 221838Z 24012KT 15/09 A298 RMK A01 T01510093  RH  068%=      5-min Rain = 0
KCL2 221839Z 25013KT 15/09 A298 RMK A01 T01530092  RH  067%=      5-min Rain = 0
KCL2 221840Z 25011KT 15/09 A298 RMK A01 T01510091  RH  067%=      5-min Rain = 0
KCL2 221841Z 24011KT 15/09 A298 RMK A01 T01500092  RH  068%=      5-min Rain = 0
KCL2 221842Z 24011KT 15/09 A298 RMK A01 T01500091  RH  068%=      5-min Rain = 0
KCL2 221843Z 24009KT 15/09 A298 RMK A01 T01500091  RH  068%=      5-min Rain = 0
KCL2 221844Z 25011KT 15/09 A298 RMK A01 T01520093  RH  068%=      5-min Rain = 0
KCL2 221845Z 25013KT 15/09 A298 RMK A01 T01530092  RH  067%=      5-min Rain = 0
KCL2 221846Z 25013KT 15/09 A298 RMK A01 T01520091  RH  067%=      5-min Rain = 0
KCL2 221847Z 25011KT 15/09 A298 RMK A01 T01520090  RH  067%=      5-min Rain = 0
KCL2 221848Z 26012KT 15/09 A298 RMK A01 T01510090  RH  067%=      5-min Rain = 0
KCL2 221849Z 26011KT 15/09 A298 RMK A01 T01500090  RH  067%=      5-min Rain = 0
KCL2 221850Z 26010KT 15/09 A298 RMK A01 T01510090  RH  067%=      5-min Rain = 0
KCL2 221851Z 25012KT 15/09 A298 RMK A01 T01510089  RH  066%=      5-min Rain = 0
KCL2 221852Z 25012KT 15/09 A298 RMK A01 T01520089  RH  066%=      5-min Rain = 0
KCL2 221853Z 26012KT 15/09 A298 RMK A01 T01520089  RH  066%=      5-min Rain = 0
KCL2 221854Z 26011KT 15/09 A298 RMK A01 T01530089  RH  066%=      5-min Rain = 0
KCL2 221855Z 26014KT 15/09 A298 RMK A01 T01530088  RH  065%=      5-min Rain = 0
KCL2 221856Z 26012KT 15/09 A298 RMK A01 T01530087  RH  065%=      5-min Rain = 0
KCL2 221857Z 26010KT 15/09 A298 RMK A01 T01520087  RH  065%=      5-min Rain = 0
KCL2 221858Z 26011KT 15/09 A298 RMK A01 T01530088  RH  065%=      5-min Rain = 0
KCL2 221859Z 25012KT 15/09 A298 RMK A01 T01530088  RH  065%=      5-min Rain = 0
KCL2 221900Z 25010KT 15/09 A298 RMK A01 T01530088  RH  065%=      5-min Rain = 0
KCL2 221901Z 25013KT 15/09 A2979 RMK A01 T01530088  RH  065%=      5-min Rain = 0
KCL2 221902Z 24011KT 15/09 A2979 RMK A01 T01530087  RH  065%=      5-min Rain = 0
KCL2 221903Z 24010KT 15/09 A2979 RMK A01 T01530088  RH  065%=      5-min Rain = 0
KCL2 221904Z 24011KT 15/09 A2979 RMK A01 T01540090  RH  066%=      5-min Rain = 0
KCL2 221905Z 25012KT 15/09 A2979 RMK A01 T01530089  RH  066%=      5-min Rain = 0
KCL2 221906Z 24010KT 15/09 A2979 RMK A01 T01530088  RH  065%=      5-min Rain = 0
KCL2 221907Z 24008KT 15/09 A2979 RMK A01 T01530086  RH  064%=      5-min Rain = 0
KCL2 221908Z 25007KT 15/09 A2979 RMK A01 T01530088  RH  065%=      5-min Rain = 0
KCL2 221909Z 26010KT 16/09 A2979 RMK A01 T01550090  RH  065%=      5-min Rain = 0
KCL2 221910Z 26009KT 16/09 A2979 RMK A01 T01560089  RH  064%=      5-min Rain = 0
KCL2 221911Z 25009KT 16/09 A2979 RMK A01 T01560091  RH  065%=      5-min Rain = 0
KCL2 221912Z 25008KT 16/09 A2979 RMK A01 T01570091  RH  064%=      5-min Rain = 0
KCL2 221913Z 24009KT 16/09 A2979 RMK A01 T01580091  RH  065%=      5-min Rain = 0
KCL2 221914Z 24010KT 16/09 A2979 RMK A01 T01580090  RH  064%=      5-min Rain = 0
KCL2 221915Z 26010KT 16/09 A2979 RMK A01 T01580089  RH  063%=      5-min Rain = 0
KCL2 221916Z 27009KT 16/09 A2979 RMK A01 T01580088  RH  063%=      5-min Rain = 0
KCL2 221917Z 27011KT 16/09 A298 RMK A01 T01600088  RH  062%=      5-min Rain = 0
KCL2 221918Z 27011KT 16/09 A298 RMK A01 T01590085  RH  061%=      5-min Rain = 0
KCL2 221919Z 26010KT 16/09 A298 RMK A01 T01590086  RH  062%=      5-min Rain = 0
KCL2 221920Z 26011KT 16/09 A298 RMK A01 T01600085  RH  061%=      5-min Rain = 0
KCL2 221921Z 26010KT 16/08 A298 RMK A01 T01580083  RH  061%=      5-min Rain = 0
KCL2 221922Z 25010KT 16/08 A298 RMK A01 T01570084  RH  062%=      5-min Rain = 0
KCL2 221923Z 25007KT 16/09 A298 RMK A01 T01570085  RH  062%=      5-min Rain = 0
KCL2 221924Z 25009KT 16/09 A298 RMK A01 T01600088  RH  062%=      5-min Rain = 0
KCL2 221925Z 25010KT 16/09 A298 RMK A01 T01610086  RH  061%=      5-min Rain = 0
KCL2 221926Z 26007KT 16/09 A298 RMK A01 T01620086  RH  061%=      5-min Rain = 0
KCL2 221927Z 26007KT 16/09 A298 RMK A01 T01630087  RH  060%=      5-min Rain = 0
KCL2 221928Z 26009KT 17/09 A298 RMK A01 T01660088  RH  060%=      5-min Rain = 0
KCL2 221929Z 25011KT 17/08 A298 RMK A01 T01660084  RH  058%=      5-min Rain = 0
KCL2 221930Z 26011KT 16/08 A298 RMK A01 T01640083  RH  059%=      5-min Rain = 0
KCL2 221931Z 27011KT 16/08 A2979 RMK A01 T01640084  RH  059%=      5-min Rain = 0
KCL2 221932Z 28010KT 16/08 A298 RMK A01 T01640081  RH  058%=      5-min Rain = 0
KCL2 221933Z 28008KT 16/08 A2979 RMK A01 T01630083  RH  059%=      5-min Rain = 0
KCL2 221934Z 27010KT 16/08 A2979 RMK A01 T01630084  RH  060%=      5-min Rain = 0
KCL2 221935Z 26011KT 16/08 A2979 RMK A01 T01610082  RH  059%=      5-min Rain = 0
KCL2 221936Z 28010KT 16/08 A2979 RMK A01 T01630081  RH  058%=      5-min Rain = 0
KCL2 221937Z 26011KT 17/08 A2979 RMK A01 T01670082  RH  057%=      5-min Rain = 0
KCL2 221938Z 26012KT 17/08 A2979 RMK A01 T01690081  RH  056%=      5-min Rain = 0
KCL2 221939Z 26013KT 17/08 A2979 RMK A01 T01690079  RH  055%=      5-min Rain = 0
KCL2 221940Z 26012KT 17/08 A2979 RMK A01 T01670079  RH  056%=      5-min Rain = 0
KCL2 221941Z 27013KT 17/08 A2979 RMK A01 T01660078  RH  056%=      5-min Rain = 0
KCL2 221942Z 28011KT 16/08 A2979 RMK A01 T01640076  RH  056%=      5-min Rain = 0
KCL2 221943Z 27010KT 16/08 A2979 RMK A01 T01640076  RH  056%=      5-min Rain = 0
KCL2 221944Z 27009KT 17/08 A2979 RMK A01 T01650077  RH  056%=      5-min Rain = 0
KCL2 221945Z 29011KT 17/08 A298 RMK A01 T01660078  RH  056%=      5-min Rain = 0
KCL2 221946Z 29011KT 17/08 A298 RMK A01 T01670078  RH  056%=      5-min Rain = 0
KCL2 221947Z 31011KT 17/08 A298 RMK A01 T01670076  RH  055%=      5-min Rain = 0
KCL2 221948Z 29012KT 17/08 A298 RMK A01 T01660077  RH  056%=      5-min Rain = 0
KCL2 221949Z 29010KT 17/08 A298 RMK A01 T01660079  RH  056%=      5-min Rain = 0
KCL2 221950Z 30008KT 17/08 A298 RMK A01 T01660081  RH  057%=      5-min Rain = 0
KCL2 221951Z 30009KT 17/08 A298 RMK A01 T01670083  RH  057%=      5-min Rain = 0
KCL2 221952Z 29010KT 17/08 A298 RMK A01 T01690081  RH  056%=      5-min Rain = 0
KCL2 221953Z 30010KT 17/08 A298 RMK A01 T01690080  RH  056%=      5-min Rain = 0
KCL2 221954Z 30011KT 17/08 A298 RMK A01 T01690079  RH  055%=      5-min Rain = 0
KCL2 221955Z 30010KT 17/08 A298 RMK A01 T01670077  RH  055%=      5-min Rain = 0
KCL2 221956Z 30009KT 17/08 A298 RMK A01 T01650078  RH  056%=      5-min Rain = 0
KCL2 221957Z 30010KT 17/08 A298 RMK A01 T01660078  RH  056%=      5-min Rain = 0
KCL2 221958Z 29011KT 17/08 A298 RMK A01 T01660077  RH  056%=      5-min Rain = 0
KCL2 221959Z 30012KT 17/08 A298 RMK A01 T01660078  RH  056%=      5-min Rain = 0
KCL2 222000Z 30013KT 17/08 A298 RMK A01 T01680078  RH  055%=      5-min Rain = 0
KCL2 222001Z 30012KT 17/08 A298 RMK A01 T01670078  RH  056%=      5-min Rain = 0
KCL2 222002Z 30009KT 17/08 A298 RMK A01 T01660078  RH  056%=      5-min Rain = 0
KCL2 222003Z 30010KT 17/08 A298 RMK A01 T01650078  RH  057%=      5-min Rain = 0
KCL2 222004Z 34021G28KT 16/07 A2981 RMK A01 T01630067  RH  053%=      5-min Rain = 0
KCL2 222005Z 35024KT 14/04 A2981 RMK A01 T01410036  RH  049%=      5-min Rain = 0
KCL2 222006Z 34023G29KT 13/03 A2981 RMK A01 T01250033  RH  053%=      5-min Rain = 0
KCL2 222007Z 34025KT 12/03 A2981 RMK A01 T01180032  RH  056%=      5-min Rain = 0
KCL2 222008Z 34024G30KT 11/03 A2982 RMK A01 T01140033  RH  057%=      5-min Rain = 0
KCL2 222009Z 35024KT 11/03 A2982 RMK A01 T01130033  RH  058%=      5-min Rain = 0
KCL2 222010Z 35024KT 11/03 A2982 RMK A01 T01120033  RH  058%=      5-min Rain = 0
KCL2 222011Z 34020KT 11/03 A2982 RMK A01 T01120034  RH  059%=      5-min Rain = 0
KCL2 222012Z 34020KT 12/04 A2982 RMK A01 T01150036  RH  058%=      5-min Rain = 0
KCL2 222013Z 35021G27KT 12/04 A2982 RMK A01 T01160035  RH  058%=      5-min Rain = 0
KCL2 222014Z 35023G29KT 12/03 A2982 RMK A01 T01150034  RH  057%=      5-min Rain = 0
KCL2 222015Z 34021KT 12/03 A2982 RMK A01 T01150033  RH  057%=      5-min Rain = 0
KCL2 222016Z 35018KT 12/04 A2982 RMK A01 T01150035  RH  058%=      5-min Rain = 0
KCL2 222017Z 36023G29KT 12/03 A2982 RMK A01 T01160034  RH  057%=      5-min Rain = 0
KCL2 222018Z 35023KT 11/03 A2982 RMK A01 T01130030  RH  057%=      5-min Rain = 0
KCL2 222019Z 35020KT 11/03 A2983 RMK A01 T01110031  RH  058%=      5-min Rain = 0
KCL2 222020Z 35020G26KT 11/03 A2983 RMK A01 T01110031  RH  058%=      5-min Rain = 0
KCL2 222021Z 36022G28KT 11/03 A2983 RMK A01 T01100030  RH  058%=      5-min Rain = 0
KCL2 222022Z 35020KT 11/03 A2983 RMK A01 T01100030  RH  058%=      5-min Rain = 0
KCL2 222023Z 35022KT 11/03 A2983 RMK A01 T01090029  RH  058%=      5-min Rain = 0
KCL2 222024Z 35020G25KT 11/03 A2983 RMK A01 T01090030  RH  058%=      5-min Rain = 0
KCL2 222025Z 35019G25KT 11/03 A2983 RMK A01 T01090030  RH  058%=      5-min Rain = 0
KCL2 222026Z 00016KT 11/03 A2983 RMK A01 T01110032  RH  058%=      5-min Rain = 0
KCL2 222027Z 00018G24KT 11/03 A2983 RMK A01 T01140032  RH  057%=      5-min Rain = 0
KCL2 222028Z 35015KT 11/03 A2983 RMK A01 T01140032  RH  057%=      5-min Rain = 0
KCL2 222029Z 35016KT 12/03 A2983 RMK A01 T01150032  RH  057%=      5-min Rain = 0
KCL2 222030Z 34020G25KT 11/03 A2983 RMK A01 T01140030  RH  056%=      5-min Rain = 0
KCL2 222031Z 34019G24KT 11/03 A2983 RMK A01 T01110027  RH  056%=      5-min Rain = 0
KCL2 222032Z 34018G23KT 11/03 A2984 RMK A01 T01100028  RH  057%=      5-min Rain = 0
KCL2 222033Z 35021KT 11/03 A2984 RMK A01 T01100028  RH  057%=      5-min Rain = 0
KCL2 222034Z 34023KT 11/03 A2984 RMK A01 T01100027  RH  056%=      5-min Rain = 0
KCL2 222035Z 34021KT 11/03 A2984 RMK A01 T01090025  RH  056%=      5-min Rain = 0
KCL2 222036Z 34022KT 11/03 A2984 RMK A01 T01070025  RH  057%=      5-min Rain = 0
KCL2 222037Z 34022KT 11/02 A2984 RMK A01 T01050023  RH  057%=      5-min Rain = 0
KCL2 222038Z 34021G27KT 10/02 A2984 RMK A01 T01030024  RH  058%=      5-min Rain = 0
KCL2 222039Z 34019KT 10/02 A2984 RMK A01 T01030024  RH  058%=      5-min Rain = 0
KCL2 222040Z 35021KT 10/02 A2984 RMK A01 T01030024  RH  058%=      5-min Rain = 0
KCL2 222041Z 35018KT 10/02 A2984 RMK A01 T01010023  RH  058%=      5-min Rain = 0
KCL2 222042Z 34019G26KT 10/02 A2984 RMK A01 T01020024  RH  059%=      5-min Rain = 0
KCL2 222043Z 34018KT 10/02 A2984 RMK A01 T01020023  RH  058%=      5-min Rain = 0
KCL2 222044Z 34020KT 10/02 A2984 RMK A01 T01020022  RH  058%=      5-min Rain = 0
KCL2 222045Z 34020KT 10/02 A2984 RMK A01 T01000021  RH  058%=      5-min Rain = 0
KCL2 222046Z 34020KT 10/02 A2985 RMK A01 T01000021  RH  058%=      5-min Rain = 0
KCL2 222047Z 34019G24KT 10/02 A2985 RMK A01 T00980020  RH  058%=      5-min Rain = 0
KCL2 222048Z 34019KT 10/02 A2984 RMK A01 T00960020  RH  059%=      5-min Rain = 0
KCL2 222049Z 36014KT 10/02 A2985 RMK A01 T00960021  RH  059%=      5-min Rain = 0
KCL2 222050Z 35019G25KT 10/02 A2985 RMK A01 T00980023  RH  059%=      5-min Rain = 0
KCL2 222051Z 36020KT 10/02 A2985 RMK A01 T00960019  RH  059%=      5-min Rain = 0
KCL2 222052Z 35017KT 10/02 A2985 RMK A01 T00950020  RH  059%=      5-min Rain = 0
KCL2 222053Z 35016KT 09/02 A2985 RMK A01 T00940020  RH  060%=      5-min Rain = 0
KCL2 222054Z 36017G23KT 09/02 A2985 RMK A01 T00940020  RH  060%=      5-min Rain = 0
KCL2 222055Z 35018KT 09/02 A2985 RMK A01 T00940020  RH  060%=      5-min Rain = 0
KCL2 222056Z 35021G27KT 09/02 A2985 RMK A01 T00940020  RH  060%=      5-min Rain = 0
KCL2 222057Z 34024KT 09/02 A2986 RMK A01 T00930018  RH  059%=      5-min Rain = 0
KCL2 222058Z 35021KT 09/02 A2986 RMK A01 T00910016  RH  059%=      5-min Rain = 0
KCL2 222059Z 34020KT 09/02 A2986 RMK A01 T00890015  RH  060%=      5-min Rain = 0
KCL2 222100Z 35020KT 09/02 A2986 RMK A01 T00880015  RH  060%=      5-min Rain = 0
KCL2 222101Z 35021KT 09/01 A2986 RMK A01 T00870014  RH  060%=      5-min Rain = 0
KCL2 222102Z 35020G25KT 09/01 A2986 RMK A01 T00860013  RH  060%=      5-min Rain = 0
KCL2 222103Z 35021G27KT 09/01 A2986 RMK A01 T00850013  RH  060%=      5-min Rain = 0
KCL2 222104Z 34019KT 08/01 A2986 RMK A01 T00840013  RH  061%=      5-min Rain = 0
KCL2 222105Z 35016KT 09/01 A2986 RMK A01 T00850014  RH  061%=      5-min Rain = 0
KCL2 222106Z 35020G25KT 09/01 A2986 RMK A01 T00850013  RH  061%=      5-min Rain = 0
KCL2 222107Z 34020KT 08/01 A2986 RMK A01 T00840012  RH  061%=      5-min Rain = 0
KCL2 222108Z 35015G21KT 08/01 A2986 RMK A01 T00840013  RH  061%=      5-min Rain = 0
KCL2 222109Z 35019KT 08/01 A2986 RMK A01 T00840013  RH  061%=      5-min Rain = 0
KCL2 222110Z 35016KT 08/01 A2986 RMK A01 T00830012  RH  061%=      5-min Rain = 0
KCL2 222111Z 35015G21KT 08/01 A2986 RMK A01 T00830013  RH  061%=      5-min Rain = 0
KCL2 222112Z 35017KT 08/01 A2986 RMK A01 T00840013  RH  061%=      5-min Rain = 0
KCL2 222113Z 35018KT 08/01 A2987 RMK A01 T00830012  RH  061%=      5-min Rain = 0
KCL2 222114Z 35018KT 08/01 A2987 RMK A01 T00820011  RH  061%=      5-min Rain = 0
KCL2 222115Z 35015KT 08/01 A2987 RMK A01 T00820012  RH  062%=      5-min Rain = 0
KCL2 222116Z 35019KT 08/01 A2987 RMK A01 T00820012  RH  061%=      5-min Rain = 0
KCL2 222117Z 35018KT 08/01 A2987 RMK A01 T00810010  RH  061%=      5-min Rain = 0
KCL2 222118Z 35019KT 08/01 A2987 RMK A01 T00810011  RH  061%=      5-min Rain = 0
KCL2 222119Z 35019G24KT 08/01 A2988 RMK A01 T00800011  RH  062%=      5-min Rain = 0
KCL2 222120Z 35018G23KT 08/01 A2988 RMK A01 T00800011  RH  062%=      5-min Rain = 0
KCL2 222121Z 34015G21KT 08/01 A2988 RMK A01 T00800011  RH  062%=      5-min Rain = 0
KCL2 222122Z 34023KT 08/01 A2988 RMK A01 T00800010  RH  061%=      5-min Rain = 0
KCL2 222123Z 35021KT 08/01 A2988 RMK A01 T00780007  RH  061%=      5-min Rain = 0
KCL2 222124Z 34018G25KT 08/01 A2988 RMK A01 T00770007  RH  061%=      5-min Rain = 0
KCL2 222125Z 34020KT 08/01 A2988 RMK A01 T00760007  RH  062%=      5-min Rain = 0
KCL2 222126Z 35017G22KT 08/01 A2988 RMK A01 T00760007  RH  062%=      5-min Rain = 0
KCL2 222127Z 34018KT 08/01 A2988 RMK A01 T00760007  RH  062%=      5-min Rain = 0
KCL2 222128Z 34017KT 08/01 A2989 RMK A01 T00760007  RH  062%=      5-min Rain = 0
KCL2 222129Z 34020G26KT 08/01 A2989 RMK A01 T00760007  RH  062%=      5-min Rain = 0
KCL2 222130Z 34019G26KT 08/01 A2989 RMK A01 T00750006  RH  061%=      5-min Rain = 0
KCL2 222131Z 35018G23KT 07/01 A2989 RMK A01 T00740006  RH  062%=      5-min Rain = 0
KCL2 222132Z 35016KT 07/01 A2989 RMK A01 T00740006  RH  062%=      5-min Rain = 0
KCL2 222133Z 35019KT 07/01 A2989 RMK A01 T00740006  RH  062%=      5-min Rain = 0
KCL2 222134Z 36020G25KT 07/01 A2989 RMK A01 T00740005  RH  062%=      5-min Rain = 0
KCL2 222135Z 35019KT 07/01 A2989 RMK A01 T00730005  RH  062%=      5-min Rain = 0
KCL2 222136Z 35019KT 07/01 A2989 RMK A01 T00730005  RH  062%=      5-min Rain = 0
KCL2 222137Z 36021KT 07/01 A2989 RMK A01 T00730005  RH  062%=      5-min Rain = 0
KCL2 222138Z 35020G26KT 07/01 A2989 RMK A01 T00730005  RH  062%=      5-min Rain = 0
KCL2 222139Z 36021KT 07/00 A2989 RMK A01 T00720004  RH  062%=      5-min Rain = 0
KCL2 222140Z 36016G22KT 07/00 A2989 RMK A01 T00710003  RH  062%=      5-min Rain = 0
KCL2 222141Z 35020G25KT 07/00 A299 RMK A01 T00710002  RH  062%=      5-min Rain = 0
KCL2 222142Z 35018G23KT 07/00 A299 RMK A01 T00710001  RH  061%=      5-min Rain = 0
KCL2 222143Z 35019G24KT 07/00 A299 RMK A01 T00710001  RH  061%=      5-min Rain = 0
KCL2 222144Z 34020KT 07/M00 A299 RMK A01 T00701001  RH  061%=      5-min Rain = 0
KCL2 222145Z 35022KT 07/M00 A299 RMK A01 T00691001  RH  061%=      5-min Rain = 0
KCL2 222146Z 34022KT 07/M00 A2991 RMK A01 T00671002  RH  061%=      5-min Rain = 0
KCL2 222147Z 34019KT 07/M00 A2991 RMK A01 T00671002  RH  062%=      5-min Rain = 0
KCL2 222148Z 35017G24KT 07/M00 A2991 RMK A01 T00671001  RH  062%=      5-min Rain = 0
KCL2 222149Z 34022KT 07/M00 A2991 RMK A01 T00671002  RH  062%=      5-min Rain = 0
KCL2 222150Z 34020KT 07/M00 A2991 RMK A01 T00661004  RH  061%=      5-min Rain = 0
KCL2 222151Z 35019KT 07/M00 A2991 RMK A01 T00651003  RH  062%=      5-min Rain = 0
KCL2 222152Z 35017KT 06/M00 A2991 RMK A01 T00641003  RH  062%=      5-min Rain = 0
KCL2 222153Z 35019G24KT 06/M00 A2991 RMK A01 T00641003  RH  062%=      5-min Rain = 0
KCL2 222154Z 35015G20KT 06/M00 A2991 RMK A01 T00641003  RH  062%=      5-min Rain = 0
KCL2 222155Z 35017KT 06/M00 A2991 RMK A01 T00641003  RH  062%=      5-min Rain = 0
KCL2 222156Z 35016G24KT 06/M00 A2991 RMK A01 T00641004  RH  062%=      5-min Rain = 0
KCL2 222157Z 34018G25KT 06/M00 A2991 RMK A01 T00641004  RH  062%=      5-min Rain = 0
KCL2 222158Z 35019G24KT 06/M00 A2992 RMK A01 T00641004  RH  062%=      5-min Rain = 0
KCL2 222159Z 35017KT 06/M01 A2992 RMK A01 T00641005  RH  061%=      5-min Rain = 0
KCL2 222200Z 34019G24KT 06/M01 A2992 RMK A01 T00641005  RH  062%=      5-min Rain = 0
KCL2 222201Z 35014G20KT 06/M01 A2992 RMK A01 T00641005  RH  061%=      5-min Rain = 0
KCL2 222202Z 34018KT 06/M01 A2992 RMK A01 T00641005  RH  061%=      5-min Rain = 0
KCL2 222203Z 34017G22KT 06/M01 A2992 RMK A01 T00641006  RH  061%=      5-min Rain = 0
KCL2 222204Z 35018G23KT 06/M01 A2993 RMK A01 T00641007  RH  061%=      5-min Rain = 0
KCL2 222205Z 35018KT 06/M01 A2993 RMK A01 T00641007  RH  060%=      5-min Rain = 0
KCL2 222206Z 34016KT 06/M01 A2993 RMK A01 T00641006  RH  061%=      5-min Rain = 0
KCL2 222207Z 34013KT 07/M01 A2993 RMK A01 T00651006  RH  061%=      5-min Rain = 0
KCL2 222208Z 34013KT 07/M01 A2994 RMK A01 T00661005  RH  061%=      5-min Rain = 0
KCL2 222209Z 34014KT 07/M00 A2994 RMK A01 T00671004  RH  061%=      5-min Rain = 0
KCL2 222210Z 35014KT 07/M01 A2994 RMK A01 T00671005  RH  060%=      5-min Rain = 0
KCL2 222211Z 34013KT 07/M00 A2994 RMK A01 T00671004  RH  060%=      5-min Rain = 0
KCL2 222212Z 35013KT 07/M00 A2994 RMK A01 T00671004  RH  061%=      5-min Rain = 0
KCL2 222213Z 36014KT 07/M00 A2994 RMK A01 T00671004  RH  061%=      5-min Rain = 0
KCL2 222214Z 35011KT 07/M00 A2994 RMK A01 T00671004  RH  061%=      5-min Rain = 0
KCL2 222215Z 35013G18KT 07/M00 A2994 RMK A01 T00671004  RH  061%=      5-min Rain = 0
KCL2 222216Z 34015KT 07/M00 A2995 RMK A01 T00681004  RH  060%=      5-min Rain = 0
KCL2 222217Z 34015KT 07/M01 A2994 RMK A01 T00671005  RH  060%=      5-min Rain = 0
KCL2 222218Z 33015KT 07/M01 A2994 RMK A01 T00671005  RH  060%=      5-min Rain = 0
KCL2 222219Z 34017KT 07/M01 A2994 RMK A01 T00671005  RH  060%=      5-min Rain = 0
KCL2 222220Z 34018KT 07/M01 A2994 RMK A01 T00661005  RH  060%=      5-min Rain = 0
KCL2 222221Z 36016G21KT 07/M01 A2994 RMK A01 T00661005  RH  060%=      5-min Rain = 0
KCL2 222222Z 35012G17KT 07/M00 A2994 RMK A01 T00661004  RH  061%=      5-min Rain = 0
KCL2 222223Z 35014KT 07/M00 A2994 RMK A01 T00661004  RH  061%=      5-min Rain = 0
KCL2 222224Z 34015KT 07/M01 A2995 RMK A01 T00661005  RH  061%=      5-min Rain = 0
KCL2 222225Z 35014KT 07/M01 A2994 RMK A01 T00661005  RH  060%=      5-min Rain = 0
KCL2 222226Z 34016KT 07/M01 A2994 RMK A01 T00661005  RH  061%=      5-min Rain = 0
KCL2 222227Z 34013KT 07/M01 A2994 RMK A01 T00661005  RH  061%=      5-min Rain = 0
KCL2 222228Z 35015KT 07/M00 A2995 RMK A01 T00671003  RH  061%=      5-min Rain = 0
KCL2 222229Z 34015KT 07/M00 A2995 RMK A01 T00671004  RH  060%=      5-min Rain = 0
KCL2 222230Z 35014KT 07/M00 A2995 RMK A01 T00671004  RH  061%=      5-min Rain = 0
KCL2 222231Z 34014KT 07/M00 A2995 RMK A01 T00671004  RH  060%=      5-min Rain = 0
KCL2 222232Z 36014G19KT 07/M00 A2995 RMK A01 T00681003  RH  061%=      5-min Rain = 0
KCL2 222233Z 35014KT 07/M00 A2995 RMK A01 T00681004  RH  060%=      5-min Rain = 0
KCL2 222234Z 34015KT 07/M00 A2995 RMK A01 T00681004  RH  060%=      5-min Rain = 0
KCL2 222235Z 34015KT 07/M00 A2995 RMK A01 T00681004  RH  060%=      5-min Rain = 0
KCL2 222236Z 35011KT 07/M00 A2995 RMK A01 T00681003  RH  060%=      5-min Rain = 0
KCL2 222237Z 34013KT 07/M00 A2995 RMK A01 T00681003  RH  061%=      5-min Rain = 0
KCL2 222238Z 34015KT 07/M00 A2995 RMK A01 T00681003  RH  060%=      5-min Rain = 0
KCL2 222239Z 35018KT 07/M01 A2995 RMK A01 T00691005  RH  059%=      5-min Rain = 0
KCL2 222240Z 35017KT 07/M01 A2995 RMK A01 T00691006  RH  059%=      5-min Rain = 0
KCL2 222241Z 34018G24KT 07/M01 A2995 RMK A01 T00701007  RH  058%=      5-min Rain = 0
KCL2 222242Z 34018KT 07/M01 A2995 RMK A01 T00701009  RH  057%=      5-min Rain = 0
KCL2 222243Z 35018G26KT 07/M01 A2995 RMK A01 T00701009  RH  057%=      5-min Rain = 0
KCL2 222244Z 35022G27KT 07/M01 A2995 RMK A01 T00701011  RH  056%=      5-min Rain = 0
KCL2 222245Z 35020G26KT 07/M01 A2995 RMK A01 T00701012  RH  056%=      5-min Rain = 0
KCL2 222246Z 35022KT 07/M01 A2995 RMK A01 T00701013  RH  056%=      5-min Rain = 0
KCL2 222247Z 35021G27KT 07/M01 A2995 RMK A01 T00701014  RH  055%=      5-min Rain = 0
KCL2 222248Z 34020G25KT 07/M01 A2996 RMK A01 T00701013  RH  056%=      5-min Rain = 0
KCL2 222249Z 34022G27KT 07/M01 A2996 RMK A01 T00691013  RH  056%=      5-min Rain = 0
KCL2 222250Z 35020KT 07/M01 A2996 RMK A01 T00691014  RH  056%=      5-min Rain = 0
KCL2 222251Z 34025G30KT 07/M01 A2996 RMK A01 T00691014  RH  056%=      5-min Rain = 0
KCL2 222252Z 35022G30KT 07/M02 A2997 RMK A01 T00671016  RH  055%=      5-min Rain = 0
KCL2 222253Z 34021KT 07/M02 A2997 RMK A01 T00671016  RH  055%=      5-min Rain = 0
KCL2 222254Z 35021KT 07/M02 A2997 RMK A01 T00661017  RH  056%=      5-min Rain = 0
KCL2 222255Z 34016KT 07/M02 A2997 RMK A01 T00651016  RH  056%=      5-min Rain = 0
KCL2 222256Z 34021G26KT 07/M02 A2997 RMK A01 T00651015  RH  056%=      5-min Rain = 0
KCL2 222257Z 33020KT 06/M02 A2997 RMK A01 T00641016  RH  056%=      5-min Rain = 0
KCL2 222258Z 34019KT 06/M02 A2998 RMK A01 T00631016  RH  057%=      5-min Rain = 0
KCL2 222259Z 33021G27KT 06/M02 A2998 RMK A01 T00621018  RH  057%=      5-min Rain = 0
KCL2 222300Z 33026G31KT 06/M02 A2998 RMK A01 T00601020  RH  057%=      5-min Rain = 0
KCL2 222301Z 33023KT 06/M02 A2998 RMK A01 T00581021  RH  057%=      5-min Rain = 0
KCL2 222302Z 34020G28KT 06/M02 A2998 RMK A01 T00571021  RH  057%=      5-min Rain = 0
KCL2 222303Z 34021G28KT 06/M02 A2998 RMK A01 T00561022  RH  057%=      5-min Rain = 0
KCL2 222304Z 33023KT 06/M02 A2998 RMK A01 T00551022  RH  058%=      5-min Rain = 0
KCL2 222305Z 33023KT 05/M02 A2999 RMK A01 T00541023  RH  058%=      5-min Rain = 0
KCL2 222306Z 33024G31KT 05/M02 A2999 RMK A01 T00531023  RH  058%=      5-min Rain = 0
KCL2 222307Z 34023KT 05/M02 A2999 RMK A01 T00531024  RH  058%=      5-min Rain = 0
KCL2 222308Z 33018G23KT 05/M02 A2999 RMK A01 T00521024  RH  058%=      5-min Rain = 0
KCL2 222309Z 33020G31KT 05/M02 A2999 RMK A01 T00521022  RH  059%=      5-min Rain = 0
KCL2 222310Z 33023G29KT 05/M02 A2998 RMK A01 T00521023  RH  058%=      5-min Rain = 0
KCL2 222311Z 34018KT 05/M02 A2998 RMK A01 T00521023  RH  059%=      5-min Rain = 0
KCL2 222312Z 35020KT 05/M02 A2998 RMK A01 T00521021  RH  059%=      5-min Rain = 0
KCL2 222313Z 34024KT 05/M02 A2998 RMK A01 T00521022  RH  059%=      5-min Rain = 0
KCL2 222314Z 35020G26KT 05/M02 A2999 RMK A01 T00511024  RH  059%=      5-min Rain = 0
KCL2 222315Z 35023KT 05/M02 A2999 RMK A01 T00501024  RH  059%=      5-min Rain = 0
KCL2 222316Z 34022G27KT 05/M02 A2999 RMK A01 T00501024  RH  059%=      5-min Rain = 0
KCL2 222317Z 35023KT 05/M03 A2999 RMK A01 T00491025  RH  059%=      5-min Rain = 0
KCL2 222318Z 34021G27KT 05/M03 A2999 RMK A01 T00481025  RH  059%=      5-min Rain = 0
KCL2 222319Z 34026KT 05/M03 A2999 RMK A01 T00481026  RH  059%=      5-min Rain = 0
KCL2 222320Z 35023G29KT 05/M03 A2999 RMK A01 T00471027  RH  059%=      5-min Rain = 0
KCL2 222321Z 35021G26KT 05/M03 A30 RMK A01 T00471026  RH  059%=      5-min Rain = 0
KCL2 222322Z 34023G28KT 05/M03 A30 RMK A01 T00461026  RH  059%=      5-min Rain = 0
KCL2 222323Z 34022G28KT 05/M03 A30 RMK A01 T00461027  RH  059%=      5-min Rain = 0
KCL2 222324Z 34022G27KT 05/M03 A30 RMK A01 T00461027  RH  059%=      5-min Rain = 0
KCL2 222325Z 34022G27KT 05/M03 A30 RMK A01 T00451028  RH  059%=      5-min Rain = 0
KCL2 222326Z 34023KT 05/M03 A30 RMK A01 T00451029  RH  059%=      5-min Rain = 0
KCL2 222327Z 34022KT 04/M03 A3001 RMK A01 T00441029  RH  059%=      5-min Rain = 0
KCL2 222328Z 33021KT 04/M03 A3001 RMK A01 T00441028  RH  059%=      5-min Rain = 0
KCL2 222329Z 34022KT 04/M03 A3001 RMK A01 T00441028  RH  059%=      5-min Rain = 0
KCL2 222330Z 34018KT 04/M03 A3001 RMK A01 T00441027  RH  060%=      5-min Rain = 0
KCL2 222331Z 34019G24KT 04/M03 A3001 RMK A01 T00441027  RH  060%=      5-min Rain = 0
KCL2 222332Z 33020KT 04/M03 A30 RMK A01 T00441026  RH  060%=      5-min Rain = 0
KCL2 222333Z 34022G27KT 04/M03 A3001 RMK A01 T00431027  RH  060%=      5-min Rain = 0
KCL2 222334Z 33018G23KT 04/M03 A3001 RMK A01 T00431026  RH  060%=      5-min Rain = 0
KCL2 222335Z 33019G25KT 04/M03 A3001 RMK A01 T00441026  RH  061%=      5-min Rain = 0
KCL2 222336Z 33020G26KT 04/M03 A3001 RMK A01 T00431027  RH  060%=      5-min Rain = 0
KCL2 222337Z 34019KT 04/M03 A3001 RMK A01 T00431027  RH  060%=      5-min Rain = 0
KCL2 222338Z 34022G28KT 04/M03 A3001 RMK A01 T00431026  RH  061%=      5-min Rain = 0
KCL2 222339Z 35021KT 04/M03 A3001 RMK A01 T00431027  RH  061%=      5-min Rain = 0
KCL2 222340Z 34017KT 04/M03 A3001 RMK A01 T00421026  RH  061%=      5-min Rain = 0
KCL2 222341Z 34021G26KT 04/M03 A3001 RMK A01 T00431026  RH  061%=      5-min Rain = 0
KCL2 222342Z 35019KT 04/M03 A3001 RMK A01 T00421026  RH  061%=      5-min Rain = 0
KCL2 222343Z 34018G23KT 04/M03 A3001 RMK A01 T00421026  RH  061%=      5-min Rain = 0
KCL2 222344Z 34018KT 04/M03 A3002 RMK A01 T00421027  RH  061%=      5-min Rain = 0
KCL2 222345Z 34014KT 04/M03 A3002 RMK A01 T00421026  RH  061%=      5-min Rain = 0
KCL2 222346Z 34019KT 04/M03 A3003 RMK A01 T00421026  RH  062%=      5-min Rain = 0
KCL2 222347Z 34018G23KT 04/M03 A3004 RMK A01 T00411026  RH  061%=      5-min Rain = 0
KCL2 222348Z 34020KT 04/M03 A3004 RMK A01 T00411027  RH  061%=      5-min Rain = 0
KCL2 222349Z 34018KT 04/M03 A3004 RMK A01 T00411027  RH  061%=      5-min Rain = 0
KCL2 222350Z 35017KT 04/M03 A3004 RMK A01 T00401027  RH  062%=      5-min Rain = 0
KCL2 222351Z 34016G21KT 04/M03 A3004 RMK A01 T00401027  RH  062%=      5-min Rain = 0
KCL2 222352Z 35019KT 04/M03 A3003 RMK A01 T00401027  RH  062%=      5-min Rain = 0
KCL2 222353Z 00021KT 04/M03 A3003 RMK A01 T00391028  RH  061%=      5-min Rain = 0
KCL2 222354Z 35017KT 04/M03 A3002 RMK A01 T00391029  RH  061%=      5-min Rain = 0
KCL2 222355Z 35018G24KT 04/M03 A3002 RMK A01 T00391028  RH  062%=      5-min Rain = 0
KCL2 222356Z 35020KT 04/M03 A3002 RMK A01 T00381029  RH  061%=      5-min Rain = 0
KCL2 222357Z 34018G23KT 04/M03 A3003 RMK A01 T00381029  RH  061%=      5-min Rain = 0
KCL2 222358Z 35018G23KT 04/M03 A3003 RMK A01 T00381029  RH  062%=      5-min Rain = 0
KCL2 222359Z 35018KT 04/M03 A3003 RMK A01 T00381029  RH  062%=      5-min Rain = 0
KCL2 230000Z 36019KT 04/M03 A3003 RMK A01 T00371029  RH  062%=      5-min Rain = 0
KCL2 230001Z 34019KT 04/M03 A3004 RMK A01 T00381029  RH  062%=      5-min Rain = 0
KCL2 230002Z 34015KT 04/M03 A3004 RMK A01 T00381029  RH  062%=      5-min Rain = 0
KCL2 230003Z 35015KT 04/M03 A3003 RMK A01 T00371028  RH  062%=      5-min Rain = 0
KCL2 230004Z 35015G20KT 04/M03 A3003 RMK A01 T00371028  RH  062%=      5-min Rain = 0
KCL2 230005Z 34016G21KT 04/M03 A3004 RMK A01 T00371028  RH  062%=      5-min Rain = 0
KCL2 230006Z 35015KT 04/M03 A3003 RMK A01 T00371028  RH  062%=      5-min Rain = 0
KCL2 230007Z 36017KT 04/M03 A3003 RMK A01 T00371029  RH  062%=      5-min Rain = 0
KCL2 230008Z 35016KT 04/M03 A3004 RMK A01 T00371029  RH  062%=      5-min Rain = 0
KCL2 230009Z 34016G21KT 04/M03 A3005 RMK A01 T00371028  RH  062%=      5-min Rain = 0
KCL2 230010Z 35016G22KT 04/M03 A3006 RMK A01 T00371030  RH  062%=      5-min Rain = 0
KCL2 230011Z 34016KT 04/M03 A3007 RMK A01 T00371029  RH  062%=      5-min Rain = 0
KCL2 230012Z 34015G20KT 04/M03 A3008 RMK A01 T00371029  RH  062%=      5-min Rain = 0
KCL2 230013Z 33014KT 04/M03 A3009 RMK A01 T00371029  RH  062%=      5-min Rain = 0
KCL2 230014Z 34016KT 04/M03 A3009 RMK A01 T00361029  RH  062%=      5-min Rain = 0
KCL2 230015Z 34013KT 04/M03 A3009 RMK A01 T00371029  RH  062%=      5-min Rain = 0
KCL2 230016Z 34014G20KT 04/M03 A3007 RMK A01 T00371028  RH  063%=      5-min Rain = 0
KCL2 230017Z 34017KT 04/M03 A3006 RMK A01 T00361029  RH  062%=      5-min Rain = 0
KCL2 230018Z 34016KT 04/M03 A3006 RMK A01 T00361029  RH  062%=      5-min Rain = 0
KCL2 230019Z 34014KT 04/M03 A3006 RMK A01 T00361028  RH  063%=      5-min Rain = 0
KCL2 230020Z 34020G25KT 04/M03 A3006 RMK A01 T00361028  RH  063%=      5-min Rain = 0
KCL2 230021Z 33018KT 04/M03 A3006 RMK A01 T00361029  RH  062%=      5-min Rain = 0
KCL2 230022Z 34017G22KT 04/M03 A3006 RMK A01 T00361029  RH  063%=      5-min Rain = 0
KCL2 230023Z 34021KT 04/M03 A3006 RMK A01 T00361029  RH  062%=      5-min Rain = 0
KCL2 230024Z 33017KT 04/M03 A3006 RMK A01 T00351030  RH  062%=      5-min Rain = 0
KCL2 230025Z 34021KT 04/M03 A3006 RMK A01 T00351030  RH  063%=      5-min Rain = 0
KCL2 230026Z 34018G23KT 04/M03 A3006 RMK A01 T00351030  RH  063%=      5-min Rain = 0
KCL2 230027Z 33017G22KT 03/M03 A3007 RMK A01 T00341030  RH  063%=      5-min Rain = 0
KCL2 230028Z 34019KT 03/M03 A3006 RMK A01 T00341030  RH  063%=      5-min Rain = 0
KCL2 230029Z 34021G27KT 03/M03 A3006 RMK A01 T00341030  RH  063%=      5-min Rain = 0
KCL2 230030Z 34019G25KT 03/M03 A3006 RMK A01 T00331031  RH  063%=      5-min Rain = 0
KCL2 230031Z 34018G26KT 03/M03 A3006 RMK A01 T00331030  RH  063%=      5-min Rain = 0
KCL2 230032Z 34019G24KT 03/M03 A3007 RMK A01 T00331031  RH  063%=      5-min Rain = 0
KCL2 230033Z 34018G26KT 03/M03 A3007 RMK A01 T00321030  RH  063%=      5-min Rain = 0
KCL2 230034Z 33022KT 03/M03 A3007 RMK A01 T00321030  RH  063%=      5-min Rain = 0
KCL2 230035Z 34019KT 03/M03 A3008 RMK A01 T00321031  RH  063%=      5-min Rain = 0
KCL2 230036Z 35016G23KT 03/M03 A3008 RMK A01 T00321031  RH  063%=      5-min Rain = 0
KCL2 230037Z 34017KT 03/M03 A3008 RMK A01 T00321030  RH  064%=      5-min Rain = 0
KCL2 230038Z 34014KT 03/M03 A3009 RMK A01 T00321030  RH  064%=      5-min Rain = 0
KCL2 230039Z 34014KT 03/M03 A3009 RMK A01 T00321030  RH  064%=      5-min Rain = 0
KCL2 230040Z 34012KT 03/M03 A3009 RMK A01 T00321029  RH  064%=      5-min Rain = 0
KCL2 230041Z 33014KT 03/M03 A3009 RMK A01 T00321029  RH  064%=      5-min Rain = 0
KCL2 230042Z 34014KT 03/M03 A3008 RMK A01 T00321030  RH  064%=      5-min Rain = 0
KCL2 230043Z 34019KT 03/M03 A3007 RMK A01 T00311031  RH  063%=      5-min Rain = 0
KCL2 230044Z 35020G26KT 03/M03 A3007 RMK A01 T00311033  RH  063%=      5-min Rain = 0
KCL2 230045Z 34021G26KT 03/M03 A3007 RMK A01 T00311034  RH  063%=      5-min Rain = 0
KCL2 230046Z 34017KT 03/M03 A3007 RMK A01 T00311034  RH  063%=      5-min Rain = 0
KCL2 230047Z 34013G18KT 03/M03 A3008 RMK A01 T00301033  RH  063%=      5-min Rain = 0
KCL2 230048Z 33015G23KT 03/M03 A3008 RMK A01 T00301032  RH  064%=      5-min Rain = 0
KCL2 230049Z 34017KT 03/M03 A3007 RMK A01 T00301033  RH  063%=      5-min Rain = 0
KCL2 230050Z 35018G24KT 03/M03 A3007 RMK A01 T00301033  RH  063%=      5-min Rain = 0
KCL2 230051Z 35018G24KT 03/M03 A3007 RMK A01 T00301034  RH  063%=      5-min Rain = 0
KCL2 230052Z 34019G25KT 03/M03 A3008 RMK A01 T00301034  RH  063%=      5-min Rain = 0
KCL2 230053Z 35016G23KT 03/M04 A3008 RMK A01 T00301035  RH  062%=      5-min Rain = 0
KCL2 230054Z 35017G24KT 03/M04 A3008 RMK A01 T00301035  RH  063%=      5-min Rain = 0
KCL2 230055Z 35021KT 03/M04 A3009 RMK A01 T00291036  RH  062%=      5-min Rain = 0
KCL2 230056Z 35017KT 03/M04 A301 RMK A01 T00291037  RH  062%=      5-min Rain = 0
KCL2 230057Z 35015KT 03/M04 A301 RMK A01 T00291036  RH  062%=      5-min Rain = 0
KCL2 230058Z 34015G20KT 03/M04 A3011 RMK A01 T00291036  RH  062%=      5-min Rain = 0
KCL2 230059Z 34015KT 03/M04 A3011 RMK A01 T00291036  RH  062%=      5-min Rain = 0
KCL2 230100Z 34017KT 03/M04 A3011 RMK A01 T00291036  RH  063%=      5-min Rain = 0
KCL2 230101Z 34016G21KT 03/M04 A3011 RMK A01 T00291036  RH  063%=      5-min Rain = 0
KCL2 230102Z 33018KT 03/M04 A3011 RMK A01 T00291035  RH  063%=      5-min Rain = 0
KCL2 230103Z 33019G24KT 03/M04 A301 RMK A01 T00291036  RH  062%=      5-min Rain = 0
KCL2 230104Z 34018G26KT 03/M04 A301 RMK A01 T00291038  RH  062%=      5-min Rain = 0
KCL2 230105Z 34023G29KT 03/M04 A301 RMK A01 T00281039  RH  061%=      5-min Rain = 0
KCL2 230106Z 34025KT 03/M04 A301 RMK A01 T00281041  RH  060%=      5-min Rain = 0
KCL2 230107Z 34022G27KT 03/M04 A301 RMK A01 T00281041  RH  060%=      5-min Rain = 0
KCL2 230108Z 34021KT 03/M04 A3009 RMK A01 T00281041  RH  060%=      5-min Rain = 0
KCL2 230109Z 34018G24KT 03/M04 A301 RMK A01 T00281041  RH  060%=      5-min Rain = 0
KCL2 230110Z 34015KT 03/M04 A3011 RMK A01 T00281040  RH  061%=      5-min Rain = 0
KCL2 230111Z 34017KT 03/M04 A3011 RMK A01 T00281040  RH  061%=      5-min Rain = 0
KCL2 230112Z 34015G21KT 03/M04 A3011 RMK A01 T00281040  RH  061%=      5-min Rain = 0
KCL2 230113Z 35018KT 03/M04 A301 RMK A01 T00281040  RH  061%=      5-min Rain = 0
KCL2 230114Z 34022KT 03/M04 A301 RMK A01 T00281041  RH  060%=      5-min Rain = 0
KCL2 230115Z 34018KT 03/M04 A301 RMK A01 T00271042  RH  060%=      5-min Rain = 0
KCL2 230116Z 35015KT 03/M04 A301 RMK A01 T00271041  RH  061%=      5-min Rain = 0
KCL2 230117Z 34016KT 03/M04 A301 RMK A01 T00271041  RH  061%=      5-min Rain = 0
KCL2 230118Z 34018KT 03/M04 A301 RMK A01 T00271041  RH  061%=      5-min Rain = 0
KCL2 230119Z 35014G19KT 03/M04 A301 RMK A01 T00271042  RH  061%=      5-min Rain = 0
KCL2 230120Z 34014KT 03/M04 A3011 RMK A01 T00271041  RH  061%=      5-min Rain = 0
KCL2 230121Z 35017KT 03/M04 A3011 RMK A01 T00271041  RH  061%=      5-min Rain = 0
KCL2 230122Z 34016KT 03/M04 A301 RMK A01 T00271041  RH  061%=      5-min Rain = 0
KCL2 230123Z 35016KT 03/M04 A301 RMK A01 T00271041  RH  061%=      5-min Rain = 0
KCL2 230124Z 34015KT 03/M04 A301 RMK A01 T00271040  RH  061%=      5-min Rain = 0
KCL2 230125Z 34015KT 03/M04 A301 RMK A01 T00271040  RH  061%=      5-min Rain = 0
KCL2 230126Z 35014KT 03/M04 A301 RMK A01 T00271040  RH  061%=      5-min Rain = 0
KCL2 230127Z 35013KT 03/M04 A301 RMK A01 T00261040  RH  061%=      5-min Rain = 0
KCL2 230128Z 35014KT 03/M04 A301 RMK A01 T00271040  RH  062%=      5-min Rain = 0
KCL2 230129Z 34015KT 03/M04 A301 RMK A01 T00271040  RH  061%=      5-min Rain = 0
KCL2 230130Z 34015KT 03/M04 A301 RMK A01 T00271041  RH  061%=      5-min Rain = 0
KCL2 230131Z 34014KT 03/M04 A3011 RMK A01 T00261041  RH  061%=      5-min Rain = 0
KCL2 230132Z 33015G21KT 03/M04 A3011 RMK A01 T00261041  RH  061%=      5-min Rain = 0
KCL2 230133Z 34017G22KT 03/M04 A3011 RMK A01 T00271041  RH  061%=      5-min Rain = 0
KCL2 230134Z 34015KT 03/M04 A3011 RMK A01 T00271042  RH  061%=      5-min Rain = 0
KCL2 230135Z 35016G22KT 03/M04 A3011 RMK A01 T00271042  RH  061%=      5-min Rain = 0
KCL2 230136Z 34016KT 03/M04 A3011 RMK A01 T00261042  RH  061%=      5-min Rain = 0
KCL2 230137Z 34017KT 03/M04 A3011 RMK A01 T00261043  RH  060%=      5-min Rain = 0
KCL2 230138Z 35015KT 03/M04 A3011 RMK A01 T00271044  RH  060%=      5-min Rain = 0
KCL2 230139Z 34016G21KT 03/M04 A3011 RMK A01 T00271044  RH  060%=      5-min Rain = 0
KCL2 230140Z 34015KT 03/M04 A3011 RMK A01 T00271044  RH  060%=      5-min Rain = 0
KCL2 230141Z 34017KT 03/M04 A3011 RMK A01 T00271044  RH  060%=      5-min Rain = 0
KCL2 230142Z 34017KT 03/M05 A301 RMK A01 T00261045  RH  059%=      5-min Rain = 0
KCL2 230143Z 34016KT 03/M05 A301 RMK A01 T00261046  RH  059%=      5-min Rain = 0
KCL2 230144Z 35016KT 03/M05 A301 RMK A01 T00261046  RH  059%=      5-min Rain = 0
KCL2 230145Z 35016KT 03/M05 A301 RMK A01 T00261047  RH  059%=      5-min Rain = 0
KCL2 230146Z 34018G25KT 03/M05 A3011 RMK A01 T00261047  RH  058%=      5-min Rain = 0
KCL2 230147Z 33015KT 03/M05 A3011 RMK A01 T00261048  RH  058%=      5-min Rain = 0
KCL2 230148Z 33017KT 03/M05 A3012 RMK A01 T00261048  RH  058%=      5-min Rain = 0
KCL2 230149Z 33016KT 03/M05 A3012 RMK A01 T00261049  RH  058%=      5-min Rain = 0
KCL2 230150Z 33017G22KT 03/M05 A3013 RMK A01 T00261049  RH  058%=      5-min Rain = 0
KCL2 230151Z 33012KT 03/M05 A3013 RMK A01 T00261049  RH  058%=      5-min Rain = 0
KCL2 230152Z 32013G18KT 03/M05 A3013 RMK A01 T00261048  RH  058%=      5-min Rain = 0
KCL2 230153Z 33018KT 03/M05 A3013 RMK A01 T00261048  RH  058%=      5-min Rain = 0
KCL2 230154Z 33019KT 03/M05 A3013 RMK A01 T00261049  RH  058%=      5-min Rain = 0
KCL2 230155Z 34018KT 03/M05 A3013 RMK A01 T00261049  RH  058%=      5-min Rain = 0
KCL2 230201Z 33015KT 03/M05 A3012 RMK A01 T00261047  RH  058%=      5-min Rain = 0
KCL2 230202Z 33014KT 03/M05 A3012 RMK A01 T00261047  RH  059%=      5-min Rain = 0
KCL2 230203Z 34015KT 03/M05 A3013 RMK A01 T00251048  RH  058%=      5-min Rain = 0
KCL2 230204Z 33013KT 03/M05 A3013 RMK A01 T00261048  RH  058%=      5-min Rain = 0
KCL2 230205Z 32015G21KT 03/M05 A3013 RMK A01 T00261048  RH  058%=      5-min Rain = 0
KCL2 230206Z 32016KT 03/M05 A3013 RMK A01 T00261048  RH  058%=      5-min Rain = 0
KCL2 230207Z 32016KT 03/M05 A3013 RMK A01 T00251049  RH  058%=      5-min Rain = 0
KCL2 230208Z 33015KT 03/M05 A3013 RMK A01 T00261049  RH  058%=      5-min Rain = 0
KCL2 230209Z 33016G21KT 03/M05 A3013 RMK A01 T00261050  RH  057%=      5-min Rain = 0
KCL2 230210Z 33014KT 03/M05 A3013 RMK A01 T00261050  RH  058%=      5-min Rain = 0
KCL2 230211Z 33016KT 03/M05 A3013 RMK A01 T00251050  RH  058%=      5-min Rain = 0
KCL2 230212Z 33015KT 03/M05 A3013 RMK A01 T00261049  RH  058%=      5-min Rain = 0
KCL2 230213Z 33014G20KT 03/M05 A3013 RMK A01 T00261049  RH  058%=      5-min Rain = 0
KCL2 230214Z 34013KT 03/M05 A3013 RMK A01 T00251049  RH  058%=      5-min Rain = 0
KCL2 230215Z 33015G20KT 03/M05 A3013 RMK A01 T00251049  RH  058%=      5-min Rain = 0
KCL2 230216Z 33019KT 03/M05 A3013 RMK A01 T00251051  RH  057%=      5-min Rain = 0
KCL2 230217Z 33019KT 03/M05 A3013 RMK A01 T00251054  RH  056%=      5-min Rain = 0
KCL2 230218Z 33016KT 03/M05 A3013 RMK A01 T00261054  RH  056%=      5-min Rain = 0
KCL2 230219Z 34018KT 03/M05 A3013 RMK A01 T00251054  RH  056%=      5-min Rain = 0
KCL2 230220Z 34016KT 03/M05 A3014 RMK A01 T00261054  RH  056%=      5-min Rain = 0
KCL2 230221Z 33017KT 03/M05 A3014 RMK A01 T00261054  RH  056%=      5-min Rain = 0
KCL2 230222Z 33016KT 03/M05 A3014 RMK A01 T00261054  RH  055%=      5-min Rain = 0
KCL2 230223Z 33019KT 03/M05 A3014 RMK A01 T00261054  RH  055%=      5-min Rain = 0
KCL2 230224Z 32016KT 03/M06 A3014 RMK A01 T00261056  RH  055%=      5-min Rain = 0
KCL2 230225Z 33015KT 03/M06 A3014 RMK A01 T00261056  RH  055%=      5-min Rain = 0
KCL2 230226Z 33016KT 03/M06 A3013 RMK A01 T00261057  RH  054%=      5-min Rain = 0
KCL2 230227Z 33016G22KT 03/M06 A3013 RMK A01 T00261057  RH  054%=      5-min Rain = 0
KCL2 230228Z 33017G22KT 03/M06 A3013 RMK A01 T00261057  RH  055%=      5-min Rain = 0
KCL2 230229Z 33022KT 03/M06 A3014 RMK A01 T00261059  RH  054%=      5-min Rain = 0
KCL2 230230Z 33020KT 03/M06 A3014 RMK A01 T00261062  RH  052%=      5-min Rain = 0
KCL2 230231Z 33019G24KT 03/M06 A3014 RMK A01 T00261062  RH  052%=      5-min Rain = 0
KCL2 230232Z 33015G21KT 03/M06 A3014 RMK A01 T00271062  RH  052%=      5-min Rain = 0
KCL2 230233Z 33018KT 03/M06 A3015 RMK A01 T00271060  RH  053%=      5-min Rain = 0
KCL2 230234Z 33019KT 03/M06 A3015 RMK A01 T00261062  RH  052%=      5-min Rain = 0
KCL2 230235Z 34014KT 03/M06 A3015 RMK A01 T00271064  RH  051%=      5-min Rain = 0
KCL2 230236Z 34019G24KT 03/M07 A3015 RMK A01 T00271065  RH  051%=      5-min Rain = 0
KCL2 230237Z 34019KT 03/M07 A3014 RMK A01 T00271069  RH  049%=      5-min Rain = 0
KCL2 230238Z 33017KT 03/M07 A3014 RMK A01 T00261071  RH  049%=      5-min Rain = 0
KCL2 230239Z 34021G27KT 03/M07 A3014 RMK A01 T00261071  RH  049%=      5-min Rain = 0
KCL2 230240Z 34024KT 03/M08 A3014 RMK A01 T00261075  RH  047%=      5-min Rain = 0
KCL2 230241Z 34021G28KT 03/M08 A3014 RMK A01 T00251078  RH  047%=      5-min Rain = 0
KCL2 230242Z 34023KT 03/M08 A3014 RMK A01 T00261080  RH  046%=      5-min Rain = 0
KCL2 230243Z 35019KT 03/M08 A3014 RMK A01 T00251082  RH  045%=      5-min Rain = 0
KCL2 230244Z 34021G28KT 03/M08 A3014 RMK A01 T00251082  RH  045%=      5-min Rain = 0
KCL2 230245Z 34025KT 03/M08 A3014 RMK A01 T00251084  RH  044%=      5-min Rain = 0
KCL2 230246Z 34025G31KT 03/M09 A3014 RMK A01 T00251087  RH  044%=      5-min Rain = 0
KCL2 230247Z 34022G28KT 02/M09 A3015 RMK A01 T00241088  RH  043%=      5-min Rain = 0
KCL2 230248Z 33026G31KT 02/M09 A3015 RMK A01 T00241088  RH  043%=      5-min Rain = 0
KCL2 230249Z 33027G33KT 02/M09 A3015 RMK A01 T00241090  RH  043%=      5-min Rain = 0
KCL2 230250Z 34024KT 02/M09 A3014 RMK A01 T00241090  RH  043%=      5-min Rain = 0
KCL2 230251Z 33022G30KT 02/M09 A3014 RMK A01 T00231090  RH  043%=      5-min Rain = 0
KCL2 230252Z 33021G27KT 02/M09 A3014 RMK A01 T00231089  RH  043%=      5-min Rain = 0
KCL2 230253Z 34020KT 02/M09 A3015 RMK A01 T00231089  RH  043%=      5-min Rain = 0
KCL2 230254Z 34023KT 02/M09 A3014 RMK A01 T00231089  RH  043%=      5-min Rain = 0
KCL2 230255Z 33022G27KT 02/M09 A3014 RMK A01 T00221089  RH  043%=      5-min Rain = 0
KCL2 230256Z 33023KT 02/M09 A3014 RMK A01 T00221089  RH  043%=      5-min Rain = 0
KCL2 230257Z 33022G28KT 02/M09 A3014 RMK A01 T00221089  RH  044%=      5-min Rain = 0
KCL2 230258Z 33018KT 02/M09 A3014 RMK A01 T00221088  RH  044%=      5-min Rain = 0
KCL2 230259Z 34016KT 02/M09 A3014 RMK A01 T00221087  RH  044%=      5-min Rain = 0
KCL2 230300Z 34019KT 02/M09 A3013 RMK A01 T00221086  RH  045%=      5-min Rain = 0
KCL2 230301Z 34021G28KT 02/M09 A3014 RMK A01 T00221086  RH  045%=      5-min Rain = 0
KCL2 230302Z 33022G29KT 02/M09 A3014 RMK A01 T00211088  RH  044%=      5-min Rain = 0
KCL2 230303Z 33022G31KT 02/M09 A3014 RMK A01 T00211090  RH  044%=      5-min Rain = 0
KCL2 230304Z 33019G24KT 02/M09 A3015 RMK A01 T00211089  RH  044%=      5-min Rain = 0
KCL2 230305Z 33021KT 02/M09 A3015 RMK A01 T00211089  RH  044%=      5-min Rain = 0
KCL2 230306Z 33020KT 02/M09 A3015 RMK A01 T00211090  RH  044%=      5-min Rain = 0
KCL2 230307Z 34024G30KT 02/M09 A3016 RMK A01 T00211090  RH  044%=      5-min Rain = 0
KCL2 230308Z 34023G29KT 02/M09 A3016 RMK A01 T00201091  RH  043%=      5-min Rain = 0
KCL2 230309Z 33022G27KT 02/M09 A3016 RMK A01 T00201092  RH  043%=      5-min Rain = 0
KCL2 230310Z 34021G33KT 02/M09 A3016 RMK A01 T00201093  RH  043%=      5-min Rain = 0
KCL2 230311Z 34024G34KT 02/M09 A3015 RMK A01 T00201093  RH  043%=      5-min Rain = 0
KCL2 230312Z 34022G30KT 02/M10 A3015 RMK A01 T00191095  RH  043%=      5-min Rain = 0
KCL2 230313Z 34023KT 02/M10 A3015 RMK A01 T00191095  RH  043%=      5-min Rain = 0
KCL2 230314Z 34022G27KT 02/M10 A3014 RMK A01 T00191096  RH  042%=      5-min Rain = 0
KCL2 230315Z 33023KT 02/M10 A3015 RMK A01 T00181096  RH  042%=      5-min Rain = 0
KCL2 230316Z 34018G23KT 02/M10 A3015 RMK A01 T00181095  RH  043%=      5-min Rain = 0
KCL2 230317Z 34017KT 02/M09 A3015 RMK A01 T00181094  RH  043%=      5-min Rain = 0
KCL2 230318Z 33019G27KT 02/M09 A3016 RMK A01 T00181093  RH  044%=      5-min Rain = 0
KCL2 230319Z 33023G30KT 02/M10 A3016 RMK A01 T00171095  RH  043%=      5-min Rain = 0
KCL2 230320Z 33022G27KT 02/M10 A3016 RMK A01 T00181096  RH  043%=      5-min Rain = 0
KCL2 230321Z 33023G28KT 02/M10 A3017 RMK A01 T00171096  RH  043%=      5-min Rain = 0
KCL2 230322Z 33022G27KT 02/M10 A3017 RMK A01 T00171096  RH  043%=      5-min Rain = 0
KCL2 230323Z 33021KT 02/M10 A3017 RMK A01 T00171096  RH  043%=      5-min Rain = 0
KCL2 230324Z 34020G27KT 02/M10 A3017 RMK A01 T00171096  RH  043%=      5-min Rain = 0
KCL2 230325Z 33018G23KT 02/M10 A3017 RMK A01 T00171095  RH  043%=      5-min Rain = 0
KCL2 230326Z 34018G24KT 02/M09 A3017 RMK A01 T00171094  RH  044%=      5-min Rain = 0
KCL2 230327Z 34018G24KT 02/M10 A3016 RMK A01 T00161095  RH  043%=      5-min Rain = 0
KCL2 230328Z 34015G20KT 02/M09 A3017 RMK A01 T00161094  RH  044%=      5-min Rain = 0
KCL2 230329Z 34020G26KT 02/M10 A3017 RMK A01 T00161095  RH  044%=      5-min Rain = 0
KCL2 230330Z 34022KT 02/M10 A3017 RMK A01 T00161096  RH  043%=      5-min Rain = 0
KCL2 230331Z 33023G28KT 02/M10 A3017 RMK A01 T00161098  RH  043%=      5-min Rain = 0
KCL2 230332Z 34021G30KT 02/M10 A3016 RMK A01 T00161098  RH  043%=      5-min Rain = 0
KCL2 230333Z 35024G29KT 02/M10 A3016 RMK A01 T00151098  RH  043%=      5-min Rain = 0
KCL2 230334Z 34022KT 02/M10 A3016 RMK A01 T00151099  RH  042%=      5-min Rain = 0
KCL2 230335Z 34024G30KT 02/M10 A3017 RMK A01 T00151099  RH  043%=      5-min Rain = 0
KCL2 230336Z 34021G26KT 02/M10 A3017 RMK A01 T00151099  RH  042%=      5-min Rain = 0
KCL2 230337Z 34018G25KT 02/M10 A3017 RMK A01 T00151098  RH  043%=      5-min Rain = 0
KCL2 230338Z 34023KT 02/M10 A3017 RMK A01 T00151098  RH  043%=      5-min Rain = 0
KCL2 230339Z 34016KT 01/M10 A3016 RMK A01 T00141099  RH  043%=      5-min Rain = 0
KCL2 230340Z 34020G25KT 01/M10 A3015 RMK A01 T00141098  RH  043%=      5-min Rain = 0
KCL2 230341Z 35021G26KT 01/M10 A3015 RMK A01 T00131098  RH  043%=      5-min Rain = 0
KCL2 230342Z 34022KT 01/M10 A3015 RMK A01 T00141098  RH  043%=      5-min Rain = 0
KCL2 230343Z 34027KT 01/M10 A3014 RMK A01 T00131099  RH  043%=      5-min Rain = 0
KCL2 230344Z 34024KT 01/M10 A3015 RMK A01 T00131099  RH  043%=      5-min Rain = 0
KCL2 230345Z 34024KT 01/M10 A3016 RMK A01 T00131099  RH  043%=      5-min Rain = 0
KCL2 230346Z 34022KT 01/M10 A3016 RMK A01 T00131099  RH  043%=      5-min Rain = 0
KCL2 230347Z 34022KT 01/M10 A3016 RMK A01 T00131098  RH  043%=      5-min Rain = 0
KCL2 230348Z 34021KT 01/M10 A3017 RMK A01 T00131098  RH  043%=      5-min Rain = 0
KCL2 230349Z 34022G27KT 01/M10 A3016 RMK A01 T00131098  RH  043%=      5-min Rain = 0
KCL2 230350Z 34018KT 01/M10 A3016 RMK A01 T00131098  RH  044%=      5-min Rain = 0
KCL2 230351Z 33019G27KT 01/M10 A3016 RMK A01 T00131097  RH  044%=      5-min Rain = 0
KCL2 230352Z 33022G28KT 01/M10 A3017 RMK A01 T00131097  RH  044%=      5-min Rain = 0
KCL2 230353Z 35023KT 01/M10 A3017 RMK A01 T00131098  RH  044%=      5-min Rain = 0
KCL2 230354Z 35024G29KT 01/M10 A3016 RMK A01 T00121098  RH  043%=      5-min Rain = 0
KCL2 230355Z 34019KT 01/M10 A3017 RMK A01 T00121098  RH  044%=      5-min Rain = 0
KCL2 230356Z 34014KT 01/M10 A3017 RMK A01 T00121096  RH  044%=      5-min Rain = 0
KCL2 230357Z 34015KT 01/M10 A3016 RMK A01 T00121095  RH  045%=      5-min Rain = 0
KCL2 230358Z 34016G21KT 01/M10 A3016 RMK A01 T00121095  RH  045%=      5-min Rain = 0
KCL2 230359Z 35018G24KT 01/M10 A3016 RMK A01 T00121095  RH  045%=      5-min Rain = 0
KCL2 230400Z 34018KT 01/M10 A3015 RMK A01 T00121095  RH  045%=      5-min Rain = 0
KCL2 230401Z 34023G30KT 01/M10 A3015 RMK A01 T00121095  RH  045%=      5-min Rain = 0
KCL2 230402Z 34022KT 01/M10 A3015 RMK A01 T00121096  RH  045%=      5-min Rain = 0
KCL2 230403Z 35022G29KT 01/M10 A3015 RMK A01 T00121097  RH  044%=      5-min Rain = 0
KCL2 230404Z 35022G27KT 01/M10 A3014 RMK A01 T00111097  RH  044%=      5-min Rain = 0
KCL2 230405Z 34018KT 01/M10 A3015 RMK A01 T00111097  RH  044%=      5-min Rain = 0
KCL2 230406Z 34018KT 01/M10 A3015 RMK A01 T00111096  RH  045%=      5-min Rain = 0
KCL2 230407Z 34019G24KT 01/M10 A3015 RMK A01 T00111095  RH  045%=      5-min Rain = 0
KCL2 230408Z 34019KT 01/M10 A3015 RMK A01 T00111095  RH  045%=      5-min Rain = 0
KCL2 230409Z 34016KT 01/M09 A3015 RMK A01 T00111094  RH  045%=      5-min Rain = 0
KCL2 230410Z 33018G23KT 01/M09 A3015 RMK A01 T00111094  RH  045%=      5-min Rain = 0
KCL2 230411Z 33017G22KT 01/M09 A3015 RMK A01 T00111094  RH  045%=      5-min Rain = 0
KCL2 230412Z 34019G24KT 01/M09 A3015 RMK A01 T00101094  RH  045%=      5-min Rain = 0
KCL2 230413Z 34020G25KT 01/M09 A3015 RMK A01 T00101094  RH  046%=      5-min Rain = 0
KCL2 230414Z 34014G19KT 01/M09 A3015 RMK A01 T00111094  RH  046%=      5-min Rain = 0
KCL2 230415Z 34016G21KT 01/M09 A3015 RMK A01 T00111092  RH  046%=      5-min Rain = 0
KCL2 230416Z 33013KT 01/M09 A3015 RMK A01 T00101092  RH  046%=      5-min Rain = 0
KCL2 230417Z 33015G21KT 01/M09 A3015 RMK A01 T00101092  RH  047%=      5-min Rain = 0
KCL2 230418Z 33022G28KT 01/M09 A3015 RMK A01 T00101092  RH  047%=      5-min Rain = 0
KCL2 230419Z 33021G27KT 01/M09 A3015 RMK A01 T00101093  RH  046%=      5-min Rain = 0
KCL2 230420Z 32020G26KT 01/M09 A3015 RMK A01 T00101094  RH  046%=      5-min Rain = 0
KCL2 230421Z 33020G29KT 01/M09 A3015 RMK A01 T00101094  RH  046%=      5-min Rain = 0
KCL2 230422Z 34020KT 01/M09 A3015 RMK A01 T00101094  RH  046%=      5-min Rain = 0
KCL2 230423Z 34020KT 01/M09 A3015 RMK A01 T00111093  RH  046%=      5-min Rain = 0
KCL2 230424Z 34021G26KT 01/M09 A3015 RMK A01 T00101094  RH  046%=      5-min Rain = 0
KCL2 230425Z 33023G30KT 01/M10 A3015 RMK A01 T00101095  RH  045%=      5-min Rain = 0
KCL2 230426Z 35022G29KT 01/M10 A3015 RMK A01 T00101096  RH  045%=      5-min Rain = 0
KCL2 230427Z 34027KT 01/M10 A3015 RMK A01 T00101096  RH  045%=      5-min Rain = 0
KCL2 230428Z 34025G31KT 01/M10 A3015 RMK A01 T00101097  RH  045%=      5-min Rain = 0
KCL2 230429Z 33022KT 01/M10 A3015 RMK A01 T00101097  RH  045%=      5-min Rain = 0
KCL2 230430Z 34019G24KT 01/M10 A3015 RMK A01 T00101096  RH  045%=      5-min Rain = 0
KCL2 230431Z 34021G27KT 01/M10 A3015 RMK A01 T00091096  RH  045%=      5-min Rain = 0
KCL2 230432Z 34016KT 01/M10 A3015 RMK A01 T00091096  RH  045%=      5-min Rain = 0
KCL2 230433Z 33019G24KT 01/M09 A3015 RMK A01 T00091094  RH  046%=      5-min Rain = 0
KCL2 230434Z 34015KT 01/M10 A3016 RMK A01 T00081095  RH  046%=      5-min Rain = 0
KCL2 230435Z 34016KT 01/M09 A3016 RMK A01 T00091093  RH  046%=      5-min Rain = 0
KCL2 230436Z 34018G24KT 01/M09 A3016 RMK A01 T00091093  RH  047%=      5-min Rain = 0
KCL2 230437Z 33021KT 01/M09 A3015 RMK A01 T00081094  RH  046%=      5-min Rain = 0
KCL2 230438Z 33018KT 01/M09 A3015 RMK A01 T00081094  RH  046%=      5-min Rain = 0
KCL2 230439Z 33019KT 01/M09 A3015 RMK A01 T00081094  RH  046%=      5-min Rain = 0
KCL2 230440Z 33019G27KT 01/M09 A3015 RMK A01 T00081094  RH  046%=      5-min Rain = 0
KCL2 230441Z 34023KT 01/M09 A3015 RMK A01 T00081094  RH  047%=      5-min Rain = 0
KCL2 230442Z 33020G25KT 01/M09 A3015 RMK A01 T00081093  RH  047%=      5-min Rain = 0
KCL2 230443Z 32020G25KT 01/M09 A3015 RMK A01 T00081093  RH  047%=      5-min Rain = 0
KCL2 230444Z 33023KT 01/M09 A3015 RMK A01 T00081092  RH  047%=      5-min Rain = 0
KCL2 230445Z 33024G30KT 01/M09 A3015 RMK A01 T00081093  RH  047%=      5-min Rain = 0
KCL2 230446Z 33025G32KT 01/M09 A3015 RMK A01 T00081094  RH  047%=      5-min Rain = 0
KCL2 230447Z 33021G26KT 01/M09 A3016 RMK A01 T00081094  RH  046%=      5-min Rain = 0
KCL2 230448Z 34023KT 01/M09 A3016 RMK A01 T00081094  RH  047%=      5-min Rain = 0
KCL2 230449Z 34020G25KT 01/M09 A3016 RMK A01 T00081093  RH  047%=      5-min Rain = 0
KCL2 230450Z 33024KT 01/M09 A3016 RMK A01 T00071093  RH  047%=      5-min Rain = 0
KCL2 230451Z 34023G29KT 01/M09 A3016 RMK A01 T00071093  RH  047%=      5-min Rain = 0
KCL2 230452Z 33025KT 01/M09 A3016 RMK A01 T00071093  RH  047%=      5-min Rain = 0
KCL2 230453Z 33025KT 01/M09 A3015 RMK A01 T00071093  RH  047%=      5-min Rain = 0
KCL2 230454Z 33020G25KT 01/M09 A3015 RMK A01 T00071093  RH  047%=      5-min Rain = 0
KCL2 230455Z 33018G25KT 01/M09 A3015 RMK A01 T00071092  RH  048%=      5-min Rain = 0
KCL2 230456Z 34021G26KT 01/M09 A3015 RMK A01 T00061092  RH  048%=      5-min Rain = 0
KCL2 230457Z 34023G28KT 01/M09 A3015 RMK A01 T00061092  RH  048%=      5-min Rain = 0
KCL2 230458Z 34023G30KT 01/M09 A3015 RMK A01 T00061092  RH  048%=      5-min Rain = 0
KCL2 230459Z 33022KT 01/M09 A3015 RMK A01 T00061092  RH  048%=      5-min Rain = 0
KCL2 230500Z 33024G32KT 01/M09 A3015 RMK A01 T00061092  RH  048%=      5-min Rain = 0
KCL2 230501Z 34024G30KT 01/M09 A3015 RMK A01 T00061093  RH  048%=      5-min Rain = 0
KCL2 230502Z 34021G28KT 01/M09 A3015 RMK A01 T00051093  RH  048%=      5-min Rain = 0
KCL2 230503Z 34020G29KT 01/M09 A3016 RMK A01 T00061092  RH  048%=      5-min Rain = 0
KCL2 230504Z 34018G23KT 01/M09 A3016 RMK A01 T00051092  RH  048%=      5-min Rain = 0
KCL2 230505Z 33019G24KT 01/M09 A3016 RMK A01 T00051091  RH  049%=      5-min Rain = 0
KCL2 230506Z 34020KT 01/M09 A3016 RMK A01 T00051091  RH  049%=      5-min Rain = 0
KCL2 230507Z 34019KT 01/M09 A3016 RMK A01 T00051091  RH  049%=      5-min Rain = 0
KCL2 230508Z 33019G24KT 01/M09 A3016 RMK A01 T00051090  RH  049%=      5-min Rain = 0
KCL2 230509Z 33021KT 01/M09 A3016 RMK A01 T00051090  RH  049%=      5-min Rain = 0
KCL2 230510Z 33016KT 01/M09 A3017 RMK A01 T00051091  RH  049%=      5-min Rain = 0
KCL2 230511Z 33025KT 00/M09 A3017 RMK A01 T00041092  RH  049%=      5-min Rain = 0
KCL2 230512Z 33023G28KT 00/M09 A3017 RMK A01 T00041093  RH  048%=      5-min Rain = 0
KCL2 230513Z 34019KT 00/M09 A3017 RMK A01 T00041093  RH  048%=      5-min Rain = 0
KCL2 230514Z 33020G25KT 00/M09 A3017 RMK A01 T00031092  RH  049%=      5-min Rain = 0
KCL2 230515Z 33017KT 00/M09 A3017 RMK A01 T00041092  RH  049%=      5-min Rain = 0
KCL2 230516Z 33017G23KT 00/M09 A3017 RMK A01 T00031092  RH  049%=      5-min Rain = 0
KCL2 230517Z 33022KT 00/M09 A3017 RMK A01 T00031091  RH  049%=      5-min Rain = 0
KCL2 230518Z 33018G23KT 00/M09 A3017 RMK A01 T00031092  RH  049%=      5-min Rain = 0
KCL2 230519Z 33020KT 00/M09 A3017 RMK A01 T00031092  RH  049%=      5-min Rain = 0
KCL2 230520Z 33020G25KT 00/M09 A3017 RMK A01 T00031092  RH  049%=      5-min Rain = 0
KCL2 230521Z 33016G23KT 00/M09 A3017 RMK A01 T00031092  RH  049%=      5-min Rain = 0
KCL2 230522Z 33018KT 00/M09 A3017 RMK A01 T00021092  RH  049%=      5-min Rain = 0
KCL2 230523Z 33016G24KT 00/M09 A3017 RMK A01 T00021092  RH  050%=      5-min Rain = 0
KCL2 230524Z 33016G21KT 00/M09 A3017 RMK A01 T00021091  RH  050%=      5-min Rain = 0
KCL2 230525Z 34017KT 00/M09 A3017 RMK A01 T00011091  RH  050%=      5-min Rain = 0
KCL2 230526Z 34017G22KT 00/M09 A3017 RMK A01 T00011090  RH  050%=      5-min Rain = 0
KCL2 230527Z 34019G24KT 00/M09 A3018 RMK A01 T00011091  RH  050%=      5-min Rain = 0
KCL2 230528Z 34016G22KT 00/M09 A3018 RMK A01 T00011091  RH  050%=      5-min Rain = 0
KCL2 230529Z 33016KT 00/09 A3018 RMK A01 T00000-90  RH  050%=      5-min Rain = 0
KCL2 230530Z 33017KT 00/09 A3018 RMK A01 T00-00-90  RH  051%=      5-min Rain = 0
KCL2 230531Z 33016KT 00/09 A3018 RMK A01 T00-00-90  RH  051%=      5-min Rain = 0
KCL2 230532Z 33019G24KT 00/09 A3018 RMK A01 T00-00-90  RH  051%=      5-min Rain = 0
KCL2 230533Z 34019KT 00/09 A3017 RMK A01 T00-00-90  RH  051%=      5-min Rain = 0
KCL2 230534Z 34019KT M00/M09 A3017 RMK A01 T10011091  RH  051%=      5-min Rain = 0
KCL2 230535Z 34016KT M00/M09 A3017 RMK A01 T10011090  RH  051%=      5-min Rain = 0
KCL2 230536Z 33016KT M00/M09 A3017 RMK A01 T10011090  RH  051%=      5-min Rain = 0
KCL2 230537Z 34019KT M00/M09 A3017 RMK A01 T10021090  RH  051%=      5-min Rain = 0
KCL2 230538Z 34015G20KT M00/M09 A3017 RMK A01 T10021090  RH  051%=      5-min Rain = 0
KCL2 230539Z 34017G24KT M00/M09 A3017 RMK A01 T10021089  RH  052%=      5-min Rain = 0
KCL2 230540Z 34017KT M00/M09 A3017 RMK A01 T10021090  RH  052%=      5-min Rain = 0
KCL2 230541Z 34018KT M00/M09 A3017 RMK A01 T10021090  RH  052%=      5-min Rain = 0
KCL2 230542Z 34017KT M00/M09 A3017 RMK A01 T10021090  RH  052%=      5-min Rain = 0
KCL2 230543Z 34017KT M00/M09 A3017 RMK A01 T10021089  RH  052%=      5-min Rain = 0
KCL2 230544Z 34015KT M00/M09 A3016 RMK A01 T10021089  RH  052%=      5-min Rain = 0
KCL2 230545Z 35016G21KT M00/M09 A3016 RMK A01 T10031090  RH  052%=      5-min Rain = 0
KCL2 230546Z 34019G26KT M00/M09 A3016 RMK A01 T10031089  RH  052%=      5-min Rain = 0
KCL2 230547Z 35020KT M00/M09 A3016 RMK A01 T10031090  RH  052%=      5-min Rain = 0
KCL2 230548Z 34017KT M00/M09 A3016 RMK A01 T10041091  RH  052%=      5-min Rain = 0
KCL2 230549Z 34017KT M00/M09 A3016 RMK A01 T10031090  RH  052%=      5-min Rain = 0
KCL2 230550Z 34015G20KT M00/M09 A3016 RMK A01 T10041090  RH  052%=      5-min Rain = 0
KCL2 230551Z 34018KT M00/M09 A3016 RMK A01 T10041090  RH  052%=      5-min Rain = 0
KCL2 230552Z 34015KT M00/M09 A3016 RMK A01 T10041090  RH  052%=      5-min Rain = 0
KCL2 230553Z 34012KT M00/M09 A3016 RMK A01 T10041089  RH  053%=      5-min Rain = 0
KCL2 230554Z 33012KT M01/M09 A3017 RMK A01 T10051088  RH  053%=      5-min Rain = 0
KCL2 230555Z 34013KT M01/M09 A3017 RMK A01 T10051088  RH  053%=      5-min Rain = 0
KCL2 230556Z 33013KT M01/M09 A3017 RMK A01 T10051088  RH  054%=      5-min Rain = 0
KCL2 230557Z 33012KT M01/M09 A3017 RMK A01 T10051088  RH  054%=      5-min Rain = 0
KCL2 230558Z 34013KT M01/M09 A3017 RMK A01 T10051087  RH  054%=      5-min Rain = 0
KCL2 230559Z 34011KT M01/M09 A3017 RMK A01 T10061087  RH  054%=      5-min Rain = 0

Page generated in 0.0745 seconds.